<?xml version="1.0" encoding="UTF-8" standalone="no" ?>
<gpx xmlns="http://www.topografix.com/GPX/1/1" xmlns:xsi="http://www.w3.org/2001/XMLSchema-instance" xsi:schemaLocation="http://www.topografix.com/GPX/1/1 http://www.topografix.com/GPX/1/1/gpx.xsd" version="1.1" creator="VisuGPX - https://www.visugpx.com">
  <metadata>
    <name>Saint-Jean-de-Buèges - Peyre Martine</name>
    <desc><![CDATA[2017-03 - Saint-Jean-de-Buèges - Peyre Martine - source de la Buèges

[b]album[/b] : [url]https://goo.gl/photos/cur48J2Emzfn2qkSA[/url]
[img]https://3.bp.blogspot.com/-yDLQDWoNbY4/WOjk7h7wVmI/AAAAAAAASGY/r5IWVgA_-B0bvNXE6ppErDFc5CmQDQxjQCLcB/s1600/2017-03_Saint-Jean-Bueges_peyre-martine_i.JPG[/img]
[b]Idées de randonnées dans la même région[/b]
Parcours : [url]https://www.visugpx.com/membres/24856/causses/seranne/[/url]
Photos : [url]https://jcvertygo.blogspot.com/p/seranne.html[/url]]]></desc>
  </metadata>
  <trk>
    <name><![CDATA[Saint-Jean-de-Buèges - Peyre Martine_1]]></name>
    <trkseg>
      <trkpt lat="43.82909" lon="3.61563">
        <ele>252.7</ele>
        <time>2017-03-15T09:16:24Z</time>
      </trkpt>
      <trkpt lat="43.82908" lon="3.616">
        <ele>200.43302540864</ele>
        <time>2017-03-15T09:16:29Z</time>
      </trkpt>
      <trkpt lat="43.82905" lon="3.61602">
        <ele>200.43302540864</ele>
        <time>2017-03-15T09:16:41Z</time>
      </trkpt>
      <trkpt lat="43.82886" lon="3.6162">
        <ele>158.29112345942</ele>
        <time>2017-03-15T09:17:12Z</time>
      </trkpt>
      <trkpt lat="43.82868" lon="3.61626">
        <ele>148.73952895372</ele>
        <time>2017-03-15T09:17:14Z</time>
      </trkpt>
      <trkpt lat="43.82845" lon="3.61644">
        <ele>146.77301110703</ele>
        <time>2017-03-15T09:17:49Z</time>
      </trkpt>
      <trkpt lat="43.82837" lon="3.6164">
        <ele>150.6150073277</ele>
        <time>2017-03-15T09:17:54Z</time>
      </trkpt>
      <trkpt lat="43.82839" lon="3.61641">
        <ele>150.6150073277</ele>
        <time>2017-03-15T09:19:09Z</time>
      </trkpt>
      <trkpt lat="43.82834" lon="3.61637">
        <ele>156.50613859755</ele>
        <time>2017-03-15T09:19:14Z</time>
      </trkpt>
      <trkpt lat="43.82828" lon="3.61636">
        <ele>156.50613859755</ele>
        <time>2017-03-15T09:19:19Z</time>
      </trkpt>
      <trkpt lat="43.82821" lon="3.61634">
        <ele>161.26855533716</ele>
        <time>2017-03-15T09:19:24Z</time>
      </trkpt>
      <trkpt lat="43.82816" lon="3.61633">
        <ele>161.26855533716</ele>
        <time>2017-03-15T09:19:29Z</time>
      </trkpt>
      <trkpt lat="43.8281" lon="3.61629">
        <ele>165.32206927095</ele>
        <time>2017-03-15T09:19:34Z</time>
      </trkpt>
      <trkpt lat="43.82805" lon="3.61628">
        <ele>165.32206927095</ele>
        <time>2017-03-15T09:19:42Z</time>
      </trkpt>
      <trkpt lat="43.82789" lon="3.61624">
        <ele>168.93062396048</ele>
        <time>2017-03-15T09:19:59Z</time>
      </trkpt>
      <trkpt lat="43.82783" lon="3.61624">
        <ele>168.93062396048</ele>
        <time>2017-03-15T09:19:59Z</time>
      </trkpt>
      <trkpt lat="43.82779" lon="3.61617">
        <ele>172.26194197286</ele>
        <time>2017-03-15T09:20:16Z</time>
      </trkpt>
      <trkpt lat="43.8278" lon="3.61605">
        <ele>172.26194197286</ele>
        <time>2017-03-15T09:20:16Z</time>
      </trkpt>
      <trkpt lat="43.82764" lon="3.61562">
        <ele>176.97434745059</ele>
        <time>2017-03-15T09:21:05Z</time>
      </trkpt>
      <trkpt lat="43.82757" lon="3.61556">
        <ele>176.97434745059</ele>
        <time>2017-03-15T09:21:08Z</time>
      </trkpt>
      <trkpt lat="43.82718" lon="3.61511">
        <ele>182.41104328189</ele>
        <time>2017-03-15T09:21:54Z</time>
      </trkpt>
      <trkpt lat="43.82708" lon="3.61505">
        <ele>187.27478989985</ele>
        <time>2017-03-15T09:21:54Z</time>
      </trkpt>
      <trkpt lat="43.82699" lon="3.61502">
        <ele>191.61186213994</ele>
        <time>2017-03-15T09:22:11Z</time>
      </trkpt>
      <trkpt lat="43.82692" lon="3.61492">
        <ele>195.40805612465</ele>
        <time>2017-03-15T09:22:11Z</time>
      </trkpt>
      <trkpt lat="43.82689" lon="3.6148">
        <ele>198.74407562538</ele>
        <time>2017-03-15T09:22:24Z</time>
      </trkpt>
      <trkpt lat="43.82687" lon="3.61472">
        <ele>198.74407562538</ele>
        <time>2017-03-15T09:22:25Z</time>
      </trkpt>
      <trkpt lat="43.82681" lon="3.61452">
        <ele>201.92933655334</ele>
        <time>2017-03-15T09:22:42Z</time>
      </trkpt>
      <trkpt lat="43.82679" lon="3.61444">
        <ele>201.92933655334</ele>
        <time>2017-03-15T09:22:44Z</time>
      </trkpt>
      <trkpt lat="43.82673" lon="3.61415">
        <ele>204.98251685596</ele>
        <time>2017-03-15T09:23:03Z</time>
      </trkpt>
      <trkpt lat="43.8266" lon="3.61384">
        <ele>207.79389739647</ele>
        <time>2017-03-15T09:23:24Z</time>
      </trkpt>
      <trkpt lat="43.82654" lon="3.61378">
        <ele>207.79389739647</ele>
        <time>2017-03-15T09:23:29Z</time>
      </trkpt>
      <trkpt lat="43.82647" lon="3.61371">
        <ele>210.26910670994</ele>
        <time>2017-03-15T09:23:44Z</time>
      </trkpt>
      <trkpt lat="43.82641" lon="3.61362">
        <ele>210.26910670994</ele>
        <time>2017-03-15T09:23:44Z</time>
      </trkpt>
      <trkpt lat="43.8264" lon="3.6136">
        <ele>212.43557722769</ele>
        <time>2017-03-15T09:23:45Z</time>
      </trkpt>
      <trkpt lat="43.82638" lon="3.61339">
        <ele>214.42425493358</ele>
        <time>2017-03-15T09:24:02Z</time>
      </trkpt>
      <trkpt lat="43.82639" lon="3.61336">
        <ele>214.42425493358</ele>
        <time>2017-03-15T09:24:02Z</time>
      </trkpt>
      <trkpt lat="43.8266" lon="3.61226">
        <ele>216.43857076539</ele>
        <time>2017-03-15T09:25:30Z</time>
      </trkpt>
      <trkpt lat="43.82663" lon="3.61215">
        <ele>216.43857076539</ele>
        <time>2017-03-15T09:25:31Z</time>
      </trkpt>
      <trkpt lat="43.82664" lon="3.61197">
        <ele>218.41868570348</ele>
        <time>2017-03-15T09:25:46Z</time>
      </trkpt>
      <trkpt lat="43.82656" lon="3.61143">
        <ele>220.42775934812</ele>
        <time>2017-03-15T09:26:19Z</time>
      </trkpt>
      <trkpt lat="43.82656" lon="3.61142">
        <ele>220.42775934812</ele>
        <time>2017-03-15T09:26:25Z</time>
      </trkpt>
      <trkpt lat="43.82649" lon="3.61134">
        <ele>221.4985728499</ele>
        <time>2017-03-15T09:27:09Z</time>
      </trkpt>
      <trkpt lat="43.82644" lon="3.61126">
        <ele>221.4985728499</ele>
        <time>2017-03-15T09:27:09Z</time>
      </trkpt>
      <trkpt lat="43.82632" lon="3.61114">
        <ele>222.21052135344</ele>
        <time>2017-03-15T09:27:25Z</time>
      </trkpt>
      <trkpt lat="43.82621" lon="3.61113">
        <ele>222.73908352142</ele>
        <time>2017-03-15T09:27:34Z</time>
      </trkpt>
      <trkpt lat="43.82608" lon="3.61099">
        <ele>222.94617844814</ele>
        <time>2017-03-15T09:28:42Z</time>
      </trkpt>
      <trkpt lat="43.82628" lon="3.61119">
        <ele>221.64589679614</ele>
        <time>2017-03-15T09:32:00Z</time>
      </trkpt>
      <trkpt lat="43.82671" lon="3.61002">
        <ele>220.75408362467</ele>
        <time>2017-03-15T09:34:08Z</time>
      </trkpt>
      <trkpt lat="43.82681" lon="3.60982">
        <ele>220.1838460733</ele>
        <time>2017-03-15T09:34:29Z</time>
      </trkpt>
      <trkpt lat="43.82681" lon="3.60981">
        <ele>220.1838460733</ele>
        <time>2017-03-15T09:34:36Z</time>
      </trkpt>
      <trkpt lat="43.82679" lon="3.60975">
        <ele>220.1838460733</ele>
        <time>2017-03-15T09:35:01Z</time>
      </trkpt>
      <trkpt lat="43.82681" lon="3.60969">
        <ele>219.85765571645</ele>
        <time>2017-03-15T09:35:21Z</time>
      </trkpt>
      <trkpt lat="43.82685" lon="3.60925">
        <ele>220.55399484215</ele>
        <time>2017-03-15T09:37:09Z</time>
      </trkpt>
      <trkpt lat="43.82684" lon="3.60908">
        <ele>221.27430974755</ele>
        <time>2017-03-15T09:37:30Z</time>
      </trkpt>
      <trkpt lat="43.82683" lon="3.60897">
        <ele>221.27430974755</ele>
        <time>2017-03-15T09:38:01Z</time>
      </trkpt>
      <trkpt lat="43.82675" lon="3.60879">
        <ele>222.28687488197</ele>
        <time>2017-03-15T09:38:25Z</time>
      </trkpt>
      <trkpt lat="43.82672" lon="3.60874">
        <ele>222.28687488197</ele>
        <time>2017-03-15T09:38:25Z</time>
      </trkpt>
      <trkpt lat="43.82666" lon="3.60858">
        <ele>223.3944931683</ele>
        <time>2017-03-15T09:38:52Z</time>
      </trkpt>
      <trkpt lat="43.82646" lon="3.608">
        <ele>225.33245276156</ele>
        <time>2017-03-15T09:39:49Z</time>
      </trkpt>
      <trkpt lat="43.82647" lon="3.60796">
        <ele>225.33245276156</ele>
        <time>2017-03-15T09:39:49Z</time>
      </trkpt>
      <trkpt lat="43.82652" lon="3.60789">
        <ele>227.32687518974</ele>
        <time>2017-03-15T09:40:06Z</time>
      </trkpt>
      <trkpt lat="43.82658" lon="3.60783">
        <ele>227.32687518974</ele>
        <time>2017-03-15T09:42:59Z</time>
      </trkpt>
      <trkpt lat="43.82661" lon="3.60777">
        <ele>230.25197350154</ele>
        <time>2017-03-15T09:43:14Z</time>
      </trkpt>
      <trkpt lat="43.82666" lon="3.60772">
        <ele>230.25197350154</ele>
        <time>2017-03-15T09:43:19Z</time>
      </trkpt>
      <trkpt lat="43.82675" lon="3.60767">
        <ele>233.14046028298</ele>
        <time>2017-03-15T09:43:34Z</time>
      </trkpt>
      <trkpt lat="43.82693" lon="3.60766">
        <ele>236.28222588864</ele>
        <time>2017-03-15T09:44:04Z</time>
      </trkpt>
      <trkpt lat="43.82698" lon="3.6076">
        <ele>236.28222588864</ele>
        <time>2017-03-15T09:44:18Z</time>
      </trkpt>
      <trkpt lat="43.82702" lon="3.60752">
        <ele>239.40823036888</ele>
        <time>2017-03-15T09:44:19Z</time>
      </trkpt>
      <trkpt lat="43.82698" lon="3.60746">
        <ele>239.40823036888</ele>
        <time>2017-03-15T09:44:28Z</time>
      </trkpt>
      <trkpt lat="43.82694" lon="3.60721">
        <ele>243.20736907296</ele>
        <time>2017-03-15T09:45:12Z</time>
      </trkpt>
      <trkpt lat="43.8267" lon="3.60621">
        <ele>249.35015860825</ele>
        <time>2017-03-15T09:47:16Z</time>
      </trkpt>
      <trkpt lat="43.82669" lon="3.60613">
        <ele>249.35015860825</ele>
        <time>2017-03-15T09:47:22Z</time>
      </trkpt>
      <trkpt lat="43.82666" lon="3.6059">
        <ele>255.62845670996</ele>
        <time>2017-03-15T09:47:55Z</time>
      </trkpt>
      <trkpt lat="43.82666" lon="3.60587">
        <ele>255.62845670996</ele>
        <time>2017-03-15T09:47:55Z</time>
      </trkpt>
      <trkpt lat="43.82665" lon="3.60586">
        <ele>255.62845670996</ele>
        <time>2017-03-15T09:48:09Z</time>
      </trkpt>
      <trkpt lat="43.82661" lon="3.60567">
        <ele>261.66964413575</ele>
        <time>2017-03-15T09:48:37Z</time>
      </trkpt>
      <trkpt lat="43.82659" lon="3.60551">
        <ele>267.4115753482</ele>
        <time>2017-03-15T09:49:00Z</time>
      </trkpt>
      <trkpt lat="43.82659" lon="3.60549">
        <ele>267.4115753482</ele>
        <time>2017-03-15T09:49:00Z</time>
      </trkpt>
      <trkpt lat="43.8265" lon="3.60502">
        <ele>273.76172149662</ele>
        <time>2017-03-15T09:50:21Z</time>
      </trkpt>
      <trkpt lat="43.82621" lon="3.60448">
        <ele>280.93048154455</ele>
        <time>2017-03-15T09:51:54Z</time>
      </trkpt>
      <trkpt lat="43.826" lon="3.60374">
        <ele>288.88323270207</ele>
        <time>2017-03-15T09:53:26Z</time>
      </trkpt>
      <trkpt lat="43.82601" lon="3.60372">
        <ele>288.88323270207</ele>
        <time>2017-03-15T09:53:28Z</time>
      </trkpt>
      <trkpt lat="43.82605" lon="3.60336">
        <ele>297.01078967867</ele>
        <time>2017-03-15T09:54:09Z</time>
      </trkpt>
      <trkpt lat="43.82609" lon="3.60331">
        <ele>297.01078967867</ele>
        <time>2017-03-15T09:54:09Z</time>
      </trkpt>
      <trkpt lat="43.82617" lon="3.60302">
        <ele>304.84035867883</ele>
        <time>2017-03-15T09:54:42Z</time>
      </trkpt>
      <trkpt lat="43.82619" lon="3.60297">
        <ele>304.84035867883</ele>
        <time>2017-03-15T09:54:42Z</time>
      </trkpt>
      <trkpt lat="43.8262" lon="3.60289">
        <ele>312.16460258236</ele>
        <time>2017-03-15T09:54:49Z</time>
      </trkpt>
      <trkpt lat="43.82624" lon="3.6027">
        <ele>319.09762061046</ele>
        <time>2017-03-15T09:55:16Z</time>
      </trkpt>
      <trkpt lat="43.82627" lon="3.60253">
        <ele>325.53650344911</ele>
        <time>2017-03-15T09:55:29Z</time>
      </trkpt>
      <trkpt lat="43.82627" lon="3.6025">
        <ele>325.53650344911</ele>
        <time>2017-03-15T09:55:29Z</time>
      </trkpt>
      <trkpt lat="43.82628" lon="3.60238">
        <ele>331.49486734507</ele>
        <time>2017-03-15T09:55:48Z</time>
      </trkpt>
      <trkpt lat="43.82628" lon="3.6023">
        <ele>331.49486734507</ele>
        <time>2017-03-15T09:55:48Z</time>
      </trkpt>
      <trkpt lat="43.82626" lon="3.60214">
        <ele>337.16779481834</ele>
        <time>2017-03-15T09:56:09Z</time>
      </trkpt>
      <trkpt lat="43.82629" lon="3.60181">
        <ele>342.9003860599</ele>
        <time>2017-03-15T09:56:47Z</time>
      </trkpt>
      <trkpt lat="43.82626" lon="3.60176">
        <ele>342.9003860599</ele>
        <time>2017-03-15T09:56:51Z</time>
      </trkpt>
      <trkpt lat="43.82627" lon="3.60167">
        <ele>348.27751887557</ele>
        <time>2017-03-15T09:56:59Z</time>
      </trkpt>
      <trkpt lat="43.82628" lon="3.60166">
        <ele>348.27751887557</ele>
        <time>2017-03-15T09:57:00Z</time>
      </trkpt>
      <trkpt lat="43.82636" lon="3.60115">
        <ele>354.36515053587</ele>
        <time>2017-03-15T09:58:08Z</time>
      </trkpt>
      <trkpt lat="43.82637" lon="3.60111">
        <ele>354.36515053587</ele>
        <time>2017-03-15T09:58:08Z</time>
      </trkpt>
      <trkpt lat="43.82645" lon="3.60126">
        <ele>360.26566373246</ele>
        <time>2017-03-15T09:58:48Z</time>
      </trkpt>
      <trkpt lat="43.82679" lon="3.60155">
        <ele>366.15079593287</ele>
        <time>2017-03-15T10:00:04Z</time>
      </trkpt>
      <trkpt lat="43.82679" lon="3.60154">
        <ele>366.15079593287</ele>
        <time>2017-03-15T10:00:05Z</time>
      </trkpt>
      <trkpt lat="43.82679" lon="3.6015">
        <ele>366.15079593287</ele>
        <time>2017-03-15T10:00:09Z</time>
      </trkpt>
      <trkpt lat="43.82687" lon="3.60128">
        <ele>371.76425246181</ele>
        <time>2017-03-15T10:00:40Z</time>
      </trkpt>
      <trkpt lat="43.82688" lon="3.60125">
        <ele>371.76425246181</ele>
        <time>2017-03-15T10:00:41Z</time>
      </trkpt>
      <trkpt lat="43.8269" lon="3.60114">
        <ele>376.96068462006</ele>
        <time>2017-03-15T10:01:06Z</time>
      </trkpt>
      <trkpt lat="43.82691" lon="3.60115">
        <ele>376.96068462006</ele>
        <time>2017-03-15T10:01:06Z</time>
      </trkpt>
      <trkpt lat="43.82691" lon="3.60117">
        <ele>376.96068462006</ele>
        <time>2017-03-15T10:01:23Z</time>
      </trkpt>
      <trkpt lat="43.82693" lon="3.60119">
        <ele>376.96068462006</ele>
        <time>2017-03-15T10:01:23Z</time>
      </trkpt>
      <trkpt lat="43.82699" lon="3.60127">
        <ele>381.84353702553</ele>
        <time>2017-03-15T10:01:46Z</time>
      </trkpt>
      <trkpt lat="43.82739" lon="3.60172">
        <ele>386.96363072441</ele>
        <time>2017-03-15T10:03:02Z</time>
      </trkpt>
      <trkpt lat="43.82741" lon="3.60174">
        <ele>386.96363072441</ele>
        <time>2017-03-15T10:03:04Z</time>
      </trkpt>
      <trkpt lat="43.82772" lon="3.60195">
        <ele>391.94708216412</ele>
        <time>2017-03-15T10:03:57Z</time>
      </trkpt>
      <trkpt lat="43.82777" lon="3.60199">
        <ele>391.94708216412</ele>
        <time>2017-03-15T10:03:59Z</time>
      </trkpt>
      <trkpt lat="43.82807" lon="3.60216">
        <ele>397.00667624194</ele>
        <time>2017-03-15T10:04:45Z</time>
      </trkpt>
      <trkpt lat="43.82812" lon="3.60214">
        <ele>397.00667624194</ele>
        <time>2017-03-15T10:04:45Z</time>
      </trkpt>
      <trkpt lat="43.82805" lon="3.60194">
        <ele>402.03148280664</ele>
        <time>2017-03-15T10:05:21Z</time>
      </trkpt>
      <trkpt lat="43.82802" lon="3.60193">
        <ele>402.03148280664</ele>
        <time>2017-03-15T10:05:24Z</time>
      </trkpt>
      <trkpt lat="43.82801" lon="3.60193">
        <ele>402.03148280664</ele>
        <time>2017-03-15T10:05:29Z</time>
      </trkpt>
      <trkpt lat="43.82795" lon="3.60165">
        <ele>407.12372842506</ele>
        <time>2017-03-15T10:06:17Z</time>
      </trkpt>
      <trkpt lat="43.82791" lon="3.6016">
        <ele>407.12372842506</ele>
        <time>2017-03-15T10:06:18Z</time>
      </trkpt>
      <trkpt lat="43.8279" lon="3.6016">
        <ele>407.12372842506</ele>
        <time>2017-03-15T10:06:21Z</time>
      </trkpt>
      <trkpt lat="43.82789" lon="3.60142">
        <ele>411.73761737825</ele>
        <time>2017-03-15T10:06:43Z</time>
      </trkpt>
      <trkpt lat="43.82786" lon="3.60135">
        <ele>411.73761737825</ele>
        <time>2017-03-15T10:06:44Z</time>
      </trkpt>
      <trkpt lat="43.82785" lon="3.60129">
        <ele>415.77862899392</ele>
        <time>2017-03-15T10:06:54Z</time>
      </trkpt>
      <trkpt lat="43.82794" lon="3.60106">
        <ele>420.49544463102</ele>
        <time>2017-03-15T10:08:05Z</time>
      </trkpt>
      <trkpt lat="43.82801" lon="3.60117">
        <ele>424.87898952732</ele>
        <time>2017-03-15T10:08:30Z</time>
      </trkpt>
      <trkpt lat="43.82804" lon="3.60122">
        <ele>424.87898952732</ele>
        <time>2017-03-15T10:08:30Z</time>
      </trkpt>
      <trkpt lat="43.82819" lon="3.6014">
        <ele>429.02721551739</ele>
        <time>2017-03-15T10:09:04Z</time>
      </trkpt>
      <trkpt lat="43.82814" lon="3.60148">
        <ele>429.02721551739</ele>
        <time>2017-03-15T10:09:44Z</time>
      </trkpt>
      <trkpt lat="43.82816" lon="3.60124">
        <ele>433.91335319553</ele>
        <time>2017-03-15T10:10:28Z</time>
      </trkpt>
      <trkpt lat="43.82815" lon="3.60115">
        <ele>433.91335319553</ele>
        <time>2017-03-15T10:10:30Z</time>
      </trkpt>
      <trkpt lat="43.82818" lon="3.60119">
        <ele>438.44026126898</ele>
        <time>2017-03-15T10:10:46Z</time>
      </trkpt>
      <trkpt lat="43.82827" lon="3.60117">
        <ele>442.41861247775</ele>
        <time>2017-03-15T10:11:17Z</time>
      </trkpt>
      <trkpt lat="43.82826" lon="3.60114">
        <ele>442.41861247775</ele>
        <time>2017-03-15T10:11:19Z</time>
      </trkpt>
      <trkpt lat="43.82826" lon="3.60102">
        <ele>445.86250485203</ele>
        <time>2017-03-15T10:11:37Z</time>
      </trkpt>
      <trkpt lat="43.82826" lon="3.60097">
        <ele>445.86250485203</ele>
        <time>2017-03-15T10:11:37Z</time>
      </trkpt>
      <trkpt lat="43.8283" lon="3.60085">
        <ele>448.98841157268</ele>
        <time>2017-03-15T10:11:55Z</time>
      </trkpt>
      <trkpt lat="43.82834" lon="3.60079">
        <ele>448.98841157268</ele>
        <time>2017-03-15T10:12:30Z</time>
      </trkpt>
      <trkpt lat="43.82831" lon="3.60063">
        <ele>452.2715841333</ele>
        <time>2017-03-15T10:12:53Z</time>
      </trkpt>
      <trkpt lat="43.82837" lon="3.60064">
        <ele>452.2715841333</ele>
        <time>2017-03-15T10:12:55Z</time>
      </trkpt>
      <trkpt lat="43.82838" lon="3.60068">
        <ele>455.40157423012</ele>
        <time>2017-03-15T10:13:21Z</time>
      </trkpt>
      <trkpt lat="43.8285" lon="3.60067">
        <ele>458.68274485144</ele>
        <time>2017-03-15T10:13:57Z</time>
      </trkpt>
      <trkpt lat="43.82851" lon="3.60072">
        <ele>458.68274485144</ele>
        <time>2017-03-15T10:13:58Z</time>
      </trkpt>
      <trkpt lat="43.82852" lon="3.60081">
        <ele>461.79101364174</ele>
        <time>2017-03-15T10:14:18Z</time>
      </trkpt>
      <trkpt lat="43.82852" lon="3.60081">
        <ele>461.79101364174</ele>
        <time>2017-03-15T10:14:39Z</time>
      </trkpt>
      <trkpt lat="43.82854" lon="3.60073">
        <ele>461.79101364174</ele>
        <time>2017-03-15T10:14:39Z</time>
      </trkpt>
      <trkpt lat="43.82858" lon="3.60068">
        <ele>464.84488171791</ele>
        <time>2017-03-15T10:14:56Z</time>
      </trkpt>
      <trkpt lat="43.82858" lon="3.60067">
        <ele>464.84488171791</ele>
        <time>2017-03-15T10:14:56Z</time>
      </trkpt>
      <trkpt lat="43.82863" lon="3.60067">
        <ele>464.84488171791</ele>
        <time>2017-03-15T10:15:06Z</time>
      </trkpt>
      <trkpt lat="43.82863" lon="3.60067">
        <ele>464.84488171791</ele>
        <time>2017-03-15T10:15:09Z</time>
      </trkpt>
      <trkpt lat="43.82863" lon="3.60068">
        <ele>464.84488171791</ele>
        <time>2017-03-15T10:15:09Z</time>
      </trkpt>
      <trkpt lat="43.82864" lon="3.6007">
        <ele>464.84488171791</ele>
        <time>2017-03-15T10:15:23Z</time>
      </trkpt>
      <trkpt lat="43.82868" lon="3.60059">
        <ele>467.89662547469</ele>
        <time>2017-03-15T10:15:45Z</time>
      </trkpt>
      <trkpt lat="43.8287" lon="3.60045">
        <ele>470.77843388965</ele>
        <time>2017-03-15T10:16:04Z</time>
      </trkpt>
      <trkpt lat="43.82873" lon="3.6005">
        <ele>470.77843388965</ele>
        <time>2017-03-15T10:16:24Z</time>
      </trkpt>
      <trkpt lat="43.82899" lon="3.60093">
        <ele>474.79151313401</ele>
        <time>2017-03-15T10:17:47Z</time>
      </trkpt>
      <trkpt lat="43.829" lon="3.60093">
        <ele>474.79151313401</ele>
        <time>2017-03-15T10:17:47Z</time>
      </trkpt>
      <trkpt lat="43.82909" lon="3.60097">
        <ele>478.51421843942</ele>
        <time>2017-03-15T10:18:19Z</time>
      </trkpt>
      <trkpt lat="43.82907" lon="3.60066">
        <ele>482.56217264504</ele>
        <time>2017-03-15T10:19:19Z</time>
      </trkpt>
      <trkpt lat="43.82904" lon="3.60062">
        <ele>482.56217264504</ele>
        <time>2017-03-15T10:19:19Z</time>
      </trkpt>
      <trkpt lat="43.82904" lon="3.60062">
        <ele>482.56217264504</ele>
        <time>2017-03-15T10:19:27Z</time>
      </trkpt>
      <trkpt lat="43.82903" lon="3.60058">
        <ele>482.56217264504</ele>
        <time>2017-03-15T10:20:50Z</time>
      </trkpt>
      <trkpt lat="43.82904" lon="3.60054">
        <ele>487.69236389981</ele>
        <time>2017-03-15T10:20:54Z</time>
      </trkpt>
      <trkpt lat="43.82903" lon="3.6005">
        <ele>487.69236389981</ele>
        <time>2017-03-15T10:21:04Z</time>
      </trkpt>
      <trkpt lat="43.82903" lon="3.60032">
        <ele>492.36792627099</ele>
        <time>2017-03-15T10:21:24Z</time>
      </trkpt>
      <trkpt lat="43.82903" lon="3.60028">
        <ele>492.36792627099</ele>
        <time>2017-03-15T10:21:29Z</time>
      </trkpt>
      <trkpt lat="43.82903" lon="3.60028">
        <ele>492.36792627099</ele>
        <time>2017-03-15T10:21:39Z</time>
      </trkpt>
      <trkpt lat="43.82902" lon="3.60018">
        <ele>496.53597371344</ele>
        <time>2017-03-15T10:21:44Z</time>
      </trkpt>
      <trkpt lat="43.82904" lon="3.60022">
        <ele>496.53597371344</ele>
        <time>2017-03-15T10:22:00Z</time>
      </trkpt>
      <trkpt lat="43.82935" lon="3.60057">
        <ele>502.44208095613</ele>
        <time>2017-03-15T10:24:24Z</time>
      </trkpt>
      <trkpt lat="43.82935" lon="3.6006">
        <ele>502.44208095613</ele>
        <time>2017-03-15T10:24:32Z</time>
      </trkpt>
      <trkpt lat="43.82937" lon="3.60069">
        <ele>507.90729475984</ele>
        <time>2017-03-15T10:24:39Z</time>
      </trkpt>
      <trkpt lat="43.8294" lon="3.60074">
        <ele>507.90729475984</ele>
        <time>2017-03-15T10:24:45Z</time>
      </trkpt>
      <trkpt lat="43.82942" lon="3.60073">
        <ele>507.90729475984</ele>
        <time>2017-03-15T10:25:08Z</time>
      </trkpt>
      <trkpt lat="43.82946" lon="3.60035">
        <ele>513.69752548533</ele>
        <time>2017-03-15T10:25:51Z</time>
      </trkpt>
      <trkpt lat="43.82945" lon="3.60021">
        <ele>519.05025787367</ele>
        <time>2017-03-15T10:26:01Z</time>
      </trkpt>
      <trkpt lat="43.82945" lon="3.60006">
        <ele>523.93814411291</ele>
        <time>2017-03-15T10:26:24Z</time>
      </trkpt>
      <trkpt lat="43.82945" lon="3.59999">
        <ele>523.93814411291</ele>
        <time>2017-03-15T10:26:24Z</time>
      </trkpt>
      <trkpt lat="43.82938" lon="3.5997">
        <ele>528.65449881243</ele>
        <time>2017-03-15T10:27:34Z</time>
      </trkpt>
      <trkpt lat="43.82938" lon="3.59969">
        <ele>528.65449881243</ele>
        <time>2017-03-15T10:27:34Z</time>
      </trkpt>
      <trkpt lat="43.82916" lon="3.59959">
        <ele>533.41386329978</ele>
        <time>2017-03-15T10:28:39Z</time>
      </trkpt>
      <trkpt lat="43.82916" lon="3.59954">
        <ele>533.41386329978</ele>
        <time>2017-03-15T10:28:46Z</time>
      </trkpt>
      <trkpt lat="43.82918" lon="3.59952">
        <ele>533.41386329978</ele>
        <time>2017-03-15T10:28:49Z</time>
      </trkpt>
      <trkpt lat="43.82922" lon="3.59948">
        <ele>537.72251524997</ele>
        <time>2017-03-15T10:28:54Z</time>
      </trkpt>
      <trkpt lat="43.82925" lon="3.59928">
        <ele>541.67243299183</ele>
        <time>2017-03-15T10:29:19Z</time>
      </trkpt>
      <trkpt lat="43.82923" lon="3.59915">
        <ele>545.07578810887</ele>
        <time>2017-03-15T10:29:19Z</time>
      </trkpt>
      <trkpt lat="43.82921" lon="3.59893">
        <ele>548.07741411577</ele>
        <time>2017-03-15T10:29:44Z</time>
      </trkpt>
      <trkpt lat="43.82923" lon="3.59882">
        <ele>548.07741411577</ele>
        <time>2017-03-15T10:29:44Z</time>
      </trkpt>
      <trkpt lat="43.82926" lon="3.59813">
        <ele>550.81258714134</ele>
        <time>2017-03-15T10:30:45Z</time>
      </trkpt>
      <trkpt lat="43.82925" lon="3.59801">
        <ele>552.96025725569</ele>
        <time>2017-03-15T10:31:00Z</time>
      </trkpt>
      <trkpt lat="43.82925" lon="3.59796">
        <ele>552.96025725569</ele>
        <time>2017-03-15T10:31:00Z</time>
      </trkpt>
      <trkpt lat="43.82925" lon="3.59795">
        <ele>552.96025725569</ele>
        <time>2017-03-15T10:31:02Z</time>
      </trkpt>
      <trkpt lat="43.82919" lon="3.59778">
        <ele>554.7437799548</ele>
        <time>2017-03-15T10:31:19Z</time>
      </trkpt>
      <trkpt lat="43.82918" lon="3.59777">
        <ele>554.7437799548</ele>
        <time>2017-03-15T10:31:20Z</time>
      </trkpt>
      <trkpt lat="43.82917" lon="3.5977">
        <ele>554.7437799548</ele>
        <time>2017-03-15T10:31:27Z</time>
      </trkpt>
      <trkpt lat="43.82904" lon="3.59757">
        <ele>556.053759561</ele>
        <time>2017-03-15T10:31:52Z</time>
      </trkpt>
      <trkpt lat="43.82901" lon="3.59754">
        <ele>556.053759561</ele>
        <time>2017-03-15T10:31:52Z</time>
      </trkpt>
      <trkpt lat="43.82887" lon="3.59734">
        <ele>556.87661458911</ele>
        <time>2017-03-15T10:32:16Z</time>
      </trkpt>
      <trkpt lat="43.82881" lon="3.59721">
        <ele>557.25869155058</ele>
        <time>2017-03-15T10:32:39Z</time>
      </trkpt>
      <trkpt lat="43.82876" lon="3.5971">
        <ele>557.38820105632</ele>
        <time>2017-03-15T10:32:50Z</time>
      </trkpt>
      <trkpt lat="43.82876" lon="3.59709">
        <ele>557.38820105632</ele>
        <time>2017-03-15T10:32:51Z</time>
      </trkpt>
      <trkpt lat="43.82875" lon="3.59707">
        <ele>557.38820105632</ele>
        <time>2017-03-15T10:32:54Z</time>
      </trkpt>
      <trkpt lat="43.82855" lon="3.5969">
        <ele>557.5986258059</ele>
        <time>2017-03-15T10:33:35Z</time>
      </trkpt>
      <trkpt lat="43.82852" lon="3.59685">
        <ele>557.5986258059</ele>
        <time>2017-03-15T10:33:35Z</time>
      </trkpt>
      <trkpt lat="43.82845" lon="3.59675">
        <ele>557.80922468613</ele>
        <time>2017-03-15T10:33:59Z</time>
      </trkpt>
      <trkpt lat="43.82835" lon="3.59662">
        <ele>558.30540072474</ele>
        <time>2017-03-15T10:34:15Z</time>
      </trkpt>
      <trkpt lat="43.82833" lon="3.59659">
        <ele>558.30540072474</ele>
        <time>2017-03-15T10:34:39Z</time>
      </trkpt>
      <trkpt lat="43.82846" lon="3.59651">
        <ele>559.49467611368</ele>
        <time>2017-03-15T10:35:46Z</time>
      </trkpt>
      <trkpt lat="43.8285" lon="3.59642">
        <ele>559.49467611368</ele>
        <time>2017-03-15T10:35:57Z</time>
      </trkpt>
      <trkpt lat="43.82857" lon="3.59645">
        <ele>561.03166137231</ele>
        <time>2017-03-15T10:36:24Z</time>
      </trkpt>
      <trkpt lat="43.82881" lon="3.59651">
        <ele>562.81139857936</ele>
        <time>2017-03-15T10:37:02Z</time>
      </trkpt>
      <trkpt lat="43.82881" lon="3.59651">
        <ele>562.81139857936</ele>
        <time>2017-03-15T10:37:04Z</time>
      </trkpt>
      <trkpt lat="43.8288" lon="3.59636">
        <ele>564.69249334016</ele>
        <time>2017-03-15T10:37:41Z</time>
      </trkpt>
      <trkpt lat="43.82879" lon="3.59634">
        <ele>564.69249334016</ele>
        <time>2017-03-15T10:37:41Z</time>
      </trkpt>
      <trkpt lat="43.8288" lon="3.59626">
        <ele>564.69249334016</ele>
        <time>2017-03-15T10:37:58Z</time>
      </trkpt>
      <trkpt lat="43.8288" lon="3.59623">
        <ele>566.61549614062</ele>
        <time>2017-03-15T10:37:58Z</time>
      </trkpt>
      <trkpt lat="43.82883" lon="3.59612">
        <ele>566.61549614062</ele>
        <time>2017-03-15T10:38:16Z</time>
      </trkpt>
      <trkpt lat="43.82883" lon="3.59612">
        <ele>566.61549614062</ele>
        <time>2017-03-15T10:38:26Z</time>
      </trkpt>
      <trkpt lat="43.82892" lon="3.59605">
        <ele>568.66910080301</ele>
        <time>2017-03-15T10:38:37Z</time>
      </trkpt>
      <trkpt lat="43.82905" lon="3.59587">
        <ele>571.06458533853</ele>
        <time>2017-03-15T10:39:16Z</time>
      </trkpt>
      <trkpt lat="43.82912" lon="3.59581">
        <ele>571.06458533853</ele>
        <time>2017-03-15T10:39:21Z</time>
      </trkpt>
      <trkpt lat="43.82915" lon="3.59576">
        <ele>573.54971716505</ele>
        <time>2017-03-15T10:39:29Z</time>
      </trkpt>
      <trkpt lat="43.82924" lon="3.59558">
        <ele>576.2073982982</ele>
        <time>2017-03-15T10:40:00Z</time>
      </trkpt>
      <trkpt lat="43.82927" lon="3.59546">
        <ele>578.89755455957</ele>
        <time>2017-03-15T10:40:15Z</time>
      </trkpt>
      <trkpt lat="43.8293" lon="3.59529">
        <ele>581.57657652512</ele>
        <time>2017-03-15T10:40:36Z</time>
      </trkpt>
      <trkpt lat="43.82929" lon="3.59528">
        <ele>581.57657652512</ele>
        <time>2017-03-15T10:40:36Z</time>
      </trkpt>
      <trkpt lat="43.82924" lon="3.59511">
        <ele>584.17506555025</ele>
        <time>2017-03-15T10:40:56Z</time>
      </trkpt>
      <trkpt lat="43.82923" lon="3.5951">
        <ele>584.17506555025</ele>
        <time>2017-03-15T10:40:59Z</time>
      </trkpt>
      <trkpt lat="43.82937" lon="3.59506">
        <ele>586.71522395336</ele>
        <time>2017-03-15T10:41:59Z</time>
      </trkpt>
      <trkpt lat="43.82942" lon="3.59504">
        <ele>586.71522395336</ele>
        <time>2017-03-15T10:42:42Z</time>
      </trkpt>
      <trkpt lat="43.82943" lon="3.5951">
        <ele>590.48580310749</ele>
        <time>2017-03-15T10:42:42Z</time>
      </trkpt>
      <trkpt lat="43.82941" lon="3.59531">
        <ele>594.68848413708</ele>
        <time>2017-03-15T10:42:59Z</time>
      </trkpt>
      <trkpt lat="43.82945" lon="3.59551">
        <ele>599.12986956459</ele>
        <time>2017-03-15T10:43:15Z</time>
      </trkpt>
      <trkpt lat="43.82947" lon="3.59558">
        <ele>599.12986956459</ele>
        <time>2017-03-15T10:43:24Z</time>
      </trkpt>
      <trkpt lat="43.82947" lon="3.5956">
        <ele>599.12986956459</ele>
        <time>2017-03-15T10:43:24Z</time>
      </trkpt>
      <trkpt lat="43.82947" lon="3.59566">
        <ele>603.37056416445</ele>
        <time>2017-03-15T10:43:31Z</time>
      </trkpt>
      <trkpt lat="43.82955" lon="3.59576">
        <ele>607.17683398934</ele>
        <time>2017-03-15T10:43:57Z</time>
      </trkpt>
      <trkpt lat="43.82961" lon="3.59585">
        <ele>610.92409679761</ele>
        <time>2017-03-15T10:44:22Z</time>
      </trkpt>
      <trkpt lat="43.82966" lon="3.59582">
        <ele>610.92409679761</ele>
        <time>2017-03-15T10:44:22Z</time>
      </trkpt>
      <trkpt lat="43.82972" lon="3.59574">
        <ele>614.23971212286</ele>
        <time>2017-03-15T10:44:57Z</time>
      </trkpt>
      <trkpt lat="43.82974" lon="3.59561">
        <ele>617.3992389088</ele>
        <time>2017-03-15T10:45:09Z</time>
      </trkpt>
      <trkpt lat="43.82974" lon="3.5956">
        <ele>617.3992389088</ele>
        <time>2017-03-15T10:45:14Z</time>
      </trkpt>
      <trkpt lat="43.82977" lon="3.59549">
        <ele>620.5142595594</ele>
        <time>2017-03-15T10:45:24Z</time>
      </trkpt>
      <trkpt lat="43.82995" lon="3.59456">
        <ele>624.92761129203</ele>
        <time>2017-03-15T10:47:45Z</time>
      </trkpt>
      <trkpt lat="43.82987" lon="3.59392">
        <ele>630.28015154797</ele>
        <time>2017-03-15T10:49:00Z</time>
      </trkpt>
      <trkpt lat="43.82986" lon="3.59391">
        <ele>630.28015154797</ele>
        <time>2017-03-15T10:49:19Z</time>
      </trkpt>
      <trkpt lat="43.82982" lon="3.59384">
        <ele>630.28015154797</ele>
        <time>2017-03-15T10:50:24Z</time>
      </trkpt>
      <trkpt lat="43.82983" lon="3.59379">
        <ele>636.8129181073</ele>
        <time>2017-03-15T10:50:29Z</time>
      </trkpt>
      <trkpt lat="43.82984" lon="3.59374">
        <ele>636.8129181073</ele>
        <time>2017-03-15T10:50:38Z</time>
      </trkpt>
      <trkpt lat="43.82983" lon="3.59375">
        <ele>636.8129181073</ele>
        <time>2017-03-15T10:50:44Z</time>
      </trkpt>
      <trkpt lat="43.82986" lon="3.59371">
        <ele>636.8129181073</ele>
        <time>2017-03-15T10:51:16Z</time>
      </trkpt>
      <trkpt lat="43.82993" lon="3.59341">
        <ele>643.40567004207</ele>
        <time>2017-03-15T10:51:37Z</time>
      </trkpt>
      <trkpt lat="43.82994" lon="3.59339">
        <ele>643.40567004207</ele>
        <time>2017-03-15T10:51:39Z</time>
      </trkpt>
      <trkpt lat="43.82996" lon="3.59334">
        <ele>643.40567004207</ele>
        <time>2017-03-15T10:51:44Z</time>
      </trkpt>
      <trkpt lat="43.82996" lon="3.59329">
        <ele>649.36618619081</ele>
        <time>2017-03-15T10:51:54Z</time>
      </trkpt>
      <trkpt lat="43.82999" lon="3.59278">
        <ele>654.87637187421</ele>
        <time>2017-03-15T10:52:39Z</time>
      </trkpt>
      <trkpt lat="43.83024" lon="3.59221">
        <ele>660.09169628804</ele>
        <time>2017-03-15T10:53:45Z</time>
      </trkpt>
      <trkpt lat="43.83022" lon="3.59206">
        <ele>664.33567146165</ele>
        <time>2017-03-15T10:54:41Z</time>
      </trkpt>
      <trkpt lat="43.83026" lon="3.59202">
        <ele>664.33567146165</ele>
        <time>2017-03-15T10:54:42Z</time>
      </trkpt>
      <trkpt lat="43.83056" lon="3.59185">
        <ele>668.23812935763</ele>
        <time>2017-03-15T10:55:19Z</time>
      </trkpt>
      <trkpt lat="43.83057" lon="3.59184">
        <ele>668.23812935763</ele>
        <time>2017-03-15T10:55:24Z</time>
      </trkpt>
      <trkpt lat="43.83058" lon="3.59178">
        <ele>668.23812935763</ele>
        <time>2017-03-15T10:55:34Z</time>
      </trkpt>
      <trkpt lat="43.83061" lon="3.59174">
        <ele>671.5910666816</ele>
        <time>2017-03-15T10:55:39Z</time>
      </trkpt>
      <trkpt lat="43.83062" lon="3.59169">
        <ele>671.5910666816</ele>
        <time>2017-03-15T10:55:44Z</time>
      </trkpt>
      <trkpt lat="43.83063" lon="3.59164">
        <ele>671.5910666816</ele>
        <time>2017-03-15T10:55:49Z</time>
      </trkpt>
      <trkpt lat="43.83066" lon="3.5916">
        <ele>674.46281388883</ele>
        <time>2017-03-15T10:55:54Z</time>
      </trkpt>
      <trkpt lat="43.83071" lon="3.59157">
        <ele>674.46281388883</ele>
        <time>2017-03-15T10:55:59Z</time>
      </trkpt>
      <trkpt lat="43.83075" lon="3.5915">
        <ele>676.91813158774</ele>
        <time>2017-03-15T10:56:04Z</time>
      </trkpt>
      <trkpt lat="43.83078" lon="3.59145">
        <ele>676.91813158774</ele>
        <time>2017-03-15T10:56:09Z</time>
      </trkpt>
      <trkpt lat="43.8308" lon="3.5914">
        <ele>678.97504751135</ele>
        <time>2017-03-15T10:56:14Z</time>
      </trkpt>
      <trkpt lat="43.83083" lon="3.59137">
        <ele>678.97504751135</ele>
        <time>2017-03-15T10:56:19Z</time>
      </trkpt>
      <trkpt lat="43.83085" lon="3.59133">
        <ele>678.97504751135</ele>
        <time>2017-03-15T10:56:24Z</time>
      </trkpt>
      <trkpt lat="43.83085" lon="3.59127">
        <ele>680.76675281548</ele>
        <time>2017-03-15T10:56:29Z</time>
      </trkpt>
      <trkpt lat="43.83087" lon="3.59121">
        <ele>680.76675281548</ele>
        <time>2017-03-15T10:56:34Z</time>
      </trkpt>
      <trkpt lat="43.83088" lon="3.59116">
        <ele>680.76675281548</ele>
        <time>2017-03-15T10:56:39Z</time>
      </trkpt>
      <trkpt lat="43.83091" lon="3.5911">
        <ele>682.28775876425</ele>
        <time>2017-03-15T10:56:44Z</time>
      </trkpt>
      <trkpt lat="43.83095" lon="3.59105">
        <ele>682.28775876425</ele>
        <time>2017-03-15T10:56:49Z</time>
      </trkpt>
      <trkpt lat="43.831" lon="3.591">
        <ele>683.5481980344</ele>
        <time>2017-03-15T10:56:54Z</time>
      </trkpt>
      <trkpt lat="43.83105" lon="3.59095">
        <ele>683.5481980344</ele>
        <time>2017-03-15T10:56:59Z</time>
      </trkpt>
      <trkpt lat="43.83109" lon="3.5909">
        <ele>684.57263094919</ele>
        <time>2017-03-15T10:57:04Z</time>
      </trkpt>
      <trkpt lat="43.83112" lon="3.59086">
        <ele>684.57263094919</ele>
        <time>2017-03-15T10:57:09Z</time>
      </trkpt>
      <trkpt lat="43.83115" lon="3.5908">
        <ele>685.32684105982</ele>
        <time>2017-03-15T10:57:14Z</time>
      </trkpt>
      <trkpt lat="43.83117" lon="3.59074">
        <ele>685.32684105982</ele>
        <time>2017-03-15T10:57:19Z</time>
      </trkpt>
      <trkpt lat="43.83121" lon="3.59068">
        <ele>685.8663435285</ele>
        <time>2017-03-15T10:57:24Z</time>
      </trkpt>
      <trkpt lat="43.83125" lon="3.59063">
        <ele>685.8663435285</ele>
        <time>2017-03-15T10:57:29Z</time>
      </trkpt>
      <trkpt lat="43.83129" lon="3.59057">
        <ele>686.2575606049</ele>
        <time>2017-03-15T10:57:34Z</time>
      </trkpt>
      <trkpt lat="43.83132" lon="3.59052">
        <ele>686.2575606049</ele>
        <time>2017-03-15T10:57:41Z</time>
      </trkpt>
      <trkpt lat="43.8314" lon="3.59043">
        <ele>686.56240283099</ele>
        <time>2017-03-15T10:58:02Z</time>
      </trkpt>
      <trkpt lat="43.83144" lon="3.5904">
        <ele>686.56240283099</ele>
        <time>2017-03-15T10:58:26Z</time>
      </trkpt>
      <trkpt lat="43.83147" lon="3.59038">
        <ele>686.56240283099</ele>
        <time>2017-03-15T10:58:29Z</time>
      </trkpt>
      <trkpt lat="43.83154" lon="3.59032">
        <ele>686.70870547897</ele>
        <time>2017-03-15T10:58:39Z</time>
      </trkpt>
      <trkpt lat="43.8316" lon="3.59029">
        <ele>686.70870547897</ele>
        <time>2017-03-15T10:58:44Z</time>
      </trkpt>
      <trkpt lat="43.83168" lon="3.59021">
        <ele>686.68760847726</ele>
        <time>2017-03-15T10:58:54Z</time>
      </trkpt>
      <trkpt lat="43.83181" lon="3.58997">
        <ele>686.80831505288</ele>
        <time>2017-03-15T10:59:29Z</time>
      </trkpt>
      <trkpt lat="43.83182" lon="3.58992">
        <ele>686.80831505288</ele>
        <time>2017-03-15T10:59:34Z</time>
      </trkpt>
      <trkpt lat="43.83213" lon="3.58939">
        <ele>687.0685685517</ele>
        <time>2017-03-15T11:01:02Z</time>
      </trkpt>
      <trkpt lat="43.83219" lon="3.58936">
        <ele>687.0685685517</ele>
        <time>2017-03-15T11:01:17Z</time>
      </trkpt>
      <trkpt lat="43.83222" lon="3.58935">
        <ele>687.1198799251</ele>
        <time>2017-03-15T11:01:19Z</time>
      </trkpt>
      <trkpt lat="43.83226" lon="3.58934">
        <ele>687.1198799251</ele>
        <time>2017-03-15T11:01:59Z</time>
      </trkpt>
      <trkpt lat="43.83222" lon="3.58932">
        <ele>687.1198799251</ele>
        <time>2017-03-15T11:03:44Z</time>
      </trkpt>
      <trkpt lat="43.8322" lon="3.58933">
        <ele>687.60534833881</ele>
        <time>2017-03-15T11:03:49Z</time>
      </trkpt>
      <trkpt lat="43.83217" lon="3.58936">
        <ele>687.60534833881</ele>
        <time>2017-03-15T11:03:54Z</time>
      </trkpt>
      <trkpt lat="43.83212" lon="3.5894">
        <ele>687.60534833881</ele>
        <time>2017-03-15T11:03:59Z</time>
      </trkpt>
      <trkpt lat="43.83207" lon="3.58943">
        <ele>687.83685219368</ele>
        <time>2017-03-15T11:04:04Z</time>
      </trkpt>
      <trkpt lat="43.83204" lon="3.58948">
        <ele>687.83685219368</ele>
        <time>2017-03-15T11:04:09Z</time>
      </trkpt>
      <trkpt lat="43.83202" lon="3.58953">
        <ele>687.83685219368</ele>
        <time>2017-03-15T11:04:14Z</time>
      </trkpt>
      <trkpt lat="43.83166" lon="3.59013">
        <ele>687.82415298617</ele>
        <time>2017-03-15T11:04:39Z</time>
      </trkpt>
      <trkpt lat="43.83178" lon="3.58984">
        <ele>687.81145377867</ele>
        <time>2017-03-15T11:04:44Z</time>
      </trkpt>
      <trkpt lat="43.83175" lon="3.58993">
        <ele>687.81145377867</ele>
        <time>2017-03-15T11:05:08Z</time>
      </trkpt>
      <trkpt lat="43.83168" lon="3.59014">
        <ele>687.68549298377</ele>
        <time>2017-03-15T11:05:38Z</time>
      </trkpt>
      <trkpt lat="43.83168" lon="3.59016">
        <ele>687.68549298377</ele>
        <time>2017-03-15T11:05:38Z</time>
      </trkpt>
      <trkpt lat="43.83167" lon="3.59016">
        <ele>687.68549298377</ele>
        <time>2017-03-15T11:05:39Z</time>
      </trkpt>
      <trkpt lat="43.83121" lon="3.58999">
        <ele>687.38774845058</ele>
        <time>2017-03-15T11:06:49Z</time>
      </trkpt>
      <trkpt lat="43.83119" lon="3.58991">
        <ele>687.38774845058</ele>
        <time>2017-03-15T11:06:55Z</time>
      </trkpt>
      <trkpt lat="43.83119" lon="3.58976">
        <ele>687.05426901755</ele>
        <time>2017-03-15T11:07:06Z</time>
      </trkpt>
      <trkpt lat="43.83119" lon="3.58973">
        <ele>687.05426901755</ele>
        <time>2017-03-15T11:07:10Z</time>
      </trkpt>
      <trkpt lat="43.83114" lon="3.58966">
        <ele>686.66688914136</ele>
        <time>2017-03-15T11:07:25Z</time>
      </trkpt>
      <trkpt lat="43.83114" lon="3.58965">
        <ele>686.66688914136</ele>
        <time>2017-03-15T11:08:07Z</time>
      </trkpt>
      <trkpt lat="43.83082" lon="3.58939">
        <ele>686.4969351705</ele>
        <time>2017-03-15T11:09:06Z</time>
      </trkpt>
      <trkpt lat="43.83068" lon="3.58926">
        <ele>686.3914567014</ele>
        <time>2017-03-15T11:09:23Z</time>
      </trkpt>
      <trkpt lat="43.83067" lon="3.58925">
        <ele>686.3914567014</ele>
        <time>2017-03-15T11:09:25Z</time>
      </trkpt>
      <trkpt lat="43.83058" lon="3.58903">
        <ele>686.39567505002</ele>
        <time>2017-03-15T11:09:49Z</time>
      </trkpt>
      <trkpt lat="43.8306" lon="3.58841">
        <ele>686.99769670033</ele>
        <time>2017-03-15T11:11:03Z</time>
      </trkpt>
      <trkpt lat="43.8306" lon="3.58836">
        <ele>686.99769670033</ele>
        <time>2017-03-15T11:11:04Z</time>
      </trkpt>
      <trkpt lat="43.83048" lon="3.58808">
        <ele>688.11465418642</ele>
        <time>2017-03-15T11:11:47Z</time>
      </trkpt>
      <trkpt lat="43.83043" lon="3.58806">
        <ele>688.11465418642</ele>
        <time>2017-03-15T11:11:47Z</time>
      </trkpt>
      <trkpt lat="43.83032" lon="3.58788">
        <ele>689.95632171334</ele>
        <time>2017-03-15T11:12:21Z</time>
      </trkpt>
      <trkpt lat="43.83026" lon="3.58779">
        <ele>691.95102645005</ele>
        <time>2017-03-15T11:12:59Z</time>
      </trkpt>
      <trkpt lat="43.83" lon="3.58739">
        <ele>694.82222817455</ele>
        <time>2017-03-15T11:15:17Z</time>
      </trkpt>
      <trkpt lat="43.82996" lon="3.58734">
        <ele>694.82222817455</ele>
        <time>2017-03-15T11:15:17Z</time>
      </trkpt>
      <trkpt lat="43.82987" lon="3.58718">
        <ele>698.02706601839</ele>
        <time>2017-03-15T11:15:55Z</time>
      </trkpt>
      <trkpt lat="43.82983" lon="3.58714">
        <ele>698.02706601839</ele>
        <time>2017-03-15T11:16:00Z</time>
      </trkpt>
      <trkpt lat="43.82975" lon="3.58653">
        <ele>702.64668512007</ele>
        <time>2017-03-15T11:17:52Z</time>
      </trkpt>
      <trkpt lat="43.82976" lon="3.58651">
        <ele>702.64668512007</ele>
        <time>2017-03-15T11:18:25Z</time>
      </trkpt>
      <trkpt lat="43.82963" lon="3.58622">
        <ele>708.55464302813</ele>
        <time>2017-03-15T11:19:03Z</time>
      </trkpt>
      <trkpt lat="43.82962" lon="3.58621">
        <ele>708.55464302813</ele>
        <time>2017-03-15T11:19:04Z</time>
      </trkpt>
      <trkpt lat="43.82961" lon="3.58619">
        <ele>708.55464302813</ele>
        <time>2017-03-15T11:19:22Z</time>
      </trkpt>
      <trkpt lat="43.82955" lon="3.58603">
        <ele>714.73658475213</ele>
        <time>2017-03-15T11:20:14Z</time>
      </trkpt>
      <trkpt lat="43.82948" lon="3.58588">
        <ele>720.52565163934</ele>
        <time>2017-03-15T11:20:39Z</time>
      </trkpt>
      <trkpt lat="43.82943" lon="3.58576">
        <ele>725.82385243246</ele>
        <time>2017-03-15T11:21:07Z</time>
      </trkpt>
      <trkpt lat="43.82907" lon="3.58586">
        <ele>731.1326413361</ele>
        <time>2017-03-15T11:23:04Z</time>
      </trkpt>
      <trkpt lat="43.82882" lon="3.586">
        <ele>736.49872985484</ele>
        <time>2017-03-15T11:23:45Z</time>
      </trkpt>
      <trkpt lat="43.82881" lon="3.58601">
        <ele>736.49872985484</ele>
        <time>2017-03-15T11:23:45Z</time>
      </trkpt>
      <trkpt lat="43.82842" lon="3.58629">
        <ele>742.36882380432</ele>
        <time>2017-03-15T11:25:13Z</time>
      </trkpt>
      <trkpt lat="43.82828" lon="3.58639">
        <ele>747.80085549394</ele>
        <time>2017-03-15T11:25:38Z</time>
      </trkpt>
      <trkpt lat="43.82822" lon="3.58652">
        <ele>752.64387002492</ele>
        <time>2017-03-15T11:25:54Z</time>
      </trkpt>
      <trkpt lat="43.82818" lon="3.58659">
        <ele>752.64387002492</ele>
        <time>2017-03-15T11:26:59Z</time>
      </trkpt>
      <trkpt lat="43.82819" lon="3.58673">
        <ele>757.01919774057</ele>
        <time>2017-03-15T11:27:27Z</time>
      </trkpt>
      <trkpt lat="43.82819" lon="3.58672">
        <ele>757.01919774057</ele>
        <time>2017-03-15T11:27:35Z</time>
      </trkpt>
      <trkpt lat="43.82811" lon="3.58673">
        <ele>757.01919774057</ele>
        <time>2017-03-15T11:29:21Z</time>
      </trkpt>
      <trkpt lat="43.82816" lon="3.58677">
        <ele>760.76691482826</ele>
        <time>2017-03-15T11:30:14Z</time>
      </trkpt>
      <trkpt lat="43.82814" lon="3.58677">
        <ele>760.76691482826</ele>
        <time>2017-03-15T11:30:14Z</time>
      </trkpt>
      <trkpt lat="43.82814" lon="3.58677">
        <ele>760.76691482826</ele>
        <time>2017-03-15T11:30:59Z</time>
      </trkpt>
      <trkpt lat="43.82816" lon="3.58672">
        <ele>760.76691482826</ele>
        <time>2017-03-15T11:31:16Z</time>
      </trkpt>
      <trkpt lat="43.82802" lon="3.58651">
        <ele>763.76959443501</ele>
        <time>2017-03-15T11:32:46Z</time>
      </trkpt>
      <trkpt lat="43.82817" lon="3.5866">
        <ele>766.18009421429</ele>
        <time>2017-03-15T11:33:53Z</time>
      </trkpt>
      <trkpt lat="43.82824" lon="3.58651">
        <ele>768.2715689047</ele>
        <time>2017-03-15T11:34:14Z</time>
      </trkpt>
      <trkpt lat="43.82825" lon="3.58647">
        <ele>768.2715689047</ele>
        <time>2017-03-15T11:34:19Z</time>
      </trkpt>
      <trkpt lat="43.82825" lon="3.58644">
        <ele>768.2715689047</ele>
        <time>2017-03-15T11:34:24Z</time>
      </trkpt>
      <trkpt lat="43.82827" lon="3.58642">
        <ele>768.2715689047</ele>
        <time>2017-03-15T11:34:29Z</time>
      </trkpt>
      <trkpt lat="43.8283" lon="3.58642">
        <ele>770.08199182214</ele>
        <time>2017-03-15T11:34:34Z</time>
      </trkpt>
      <trkpt lat="43.82834" lon="3.58641">
        <ele>770.08199182214</ele>
        <time>2017-03-15T11:34:39Z</time>
      </trkpt>
      <trkpt lat="43.82835" lon="3.58638">
        <ele>770.08199182214</ele>
        <time>2017-03-15T11:34:44Z</time>
      </trkpt>
      <trkpt lat="43.82838" lon="3.58635">
        <ele>771.64747980337</ele>
        <time>2017-03-15T11:34:49Z</time>
      </trkpt>
      <trkpt lat="43.8284" lon="3.5863">
        <ele>771.64747980337</ele>
        <time>2017-03-15T11:34:54Z</time>
      </trkpt>
      <trkpt lat="43.82842" lon="3.58627">
        <ele>771.64747980337</ele>
        <time>2017-03-15T11:34:59Z</time>
      </trkpt>
      <trkpt lat="43.82845" lon="3.58627">
        <ele>773.03113658432</ele>
        <time>2017-03-15T11:35:04Z</time>
      </trkpt>
      <trkpt lat="43.82847" lon="3.58627">
        <ele>773.03113658432</ele>
        <time>2017-03-15T11:35:09Z</time>
      </trkpt>
      <trkpt lat="43.82851" lon="3.58628">
        <ele>773.03113658432</ele>
        <time>2017-03-15T11:35:14Z</time>
      </trkpt>
      <trkpt lat="43.82859" lon="3.58622">
        <ele>774.58027886905</ele>
        <time>2017-03-15T11:35:29Z</time>
      </trkpt>
      <trkpt lat="43.82863" lon="3.58621">
        <ele>774.58027886905</ele>
        <time>2017-03-15T11:35:34Z</time>
      </trkpt>
      <trkpt lat="43.82893" lon="3.58599">
        <ele>775.72285591388</ele>
        <time>2017-03-15T11:36:21Z</time>
      </trkpt>
      <trkpt lat="43.82896" lon="3.58594">
        <ele>775.72285591388</ele>
        <time>2017-03-15T11:36:22Z</time>
      </trkpt>
      <trkpt lat="43.82914" lon="3.58589">
        <ele>776.47768674814</ele>
        <time>2017-03-15T11:36:54Z</time>
      </trkpt>
      <trkpt lat="43.82919" lon="3.58583">
        <ele>776.47768674814</ele>
        <time>2017-03-15T11:36:54Z</time>
      </trkpt>
      <trkpt lat="43.82923" lon="3.58576">
        <ele>776.86336234271</ele>
        <time>2017-03-15T11:37:09Z</time>
      </trkpt>
      <trkpt lat="43.82925" lon="3.58571">
        <ele>776.86336234271</ele>
        <time>2017-03-15T11:37:12Z</time>
      </trkpt>
      <trkpt lat="43.82928" lon="3.58565">
        <ele>776.82613581518</ele>
        <time>2017-03-15T11:37:20Z</time>
      </trkpt>
      <trkpt lat="43.82931" lon="3.58552">
        <ele>776.36065521341</ele>
        <time>2017-03-15T11:37:54Z</time>
      </trkpt>
      <trkpt lat="43.82934" lon="3.58549">
        <ele>776.36065521341</ele>
        <time>2017-03-15T11:37:55Z</time>
      </trkpt>
      <trkpt lat="43.82928" lon="3.58535">
        <ele>775.36228922404</ele>
        <time>2017-03-15T11:38:14Z</time>
      </trkpt>
      <trkpt lat="43.82894" lon="3.58511">
        <ele>773.76438856465</ele>
        <time>2017-03-15T11:39:00Z</time>
      </trkpt>
      <trkpt lat="43.82885" lon="3.58514">
        <ele>772.126512126</ele>
        <time>2017-03-15T11:39:17Z</time>
      </trkpt>
      <trkpt lat="43.82859" lon="3.58517">
        <ele>770.4195279297</ele>
        <time>2017-03-15T11:39:31Z</time>
      </trkpt>
      <trkpt lat="43.82856" lon="3.58518">
        <ele>770.4195279297</ele>
        <time>2017-03-15T11:39:34Z</time>
      </trkpt>
      <trkpt lat="43.82794" lon="3.58521">
        <ele>768.48683464554</ele>
        <time>2017-03-15T11:40:57Z</time>
      </trkpt>
      <trkpt lat="43.82791" lon="3.58523">
        <ele>768.48683464554</ele>
        <time>2017-03-15T11:41:02Z</time>
      </trkpt>
      <trkpt lat="43.82759" lon="3.58546">
        <ele>766.35677131818</ele>
        <time>2017-03-15T11:41:49Z</time>
      </trkpt>
      <trkpt lat="43.82758" lon="3.58549">
        <ele>766.35677131818</ele>
        <time>2017-03-15T11:41:59Z</time>
      </trkpt>
      <trkpt lat="43.82755" lon="3.58549">
        <ele>766.35677131818</ele>
        <time>2017-03-15T11:42:04Z</time>
      </trkpt>
      <trkpt lat="43.82752" lon="3.58549">
        <ele>764.01275964347</ele>
        <time>2017-03-15T11:42:09Z</time>
      </trkpt>
      <trkpt lat="43.82748" lon="3.58551">
        <ele>764.01275964347</ele>
        <time>2017-03-15T11:42:14Z</time>
      </trkpt>
      <trkpt lat="43.82743" lon="3.58553">
        <ele>764.01275964347</ele>
        <time>2017-03-15T11:42:19Z</time>
      </trkpt>
      <trkpt lat="43.82739" lon="3.58556">
        <ele>761.65602561441</ele>
        <time>2017-03-15T11:42:24Z</time>
      </trkpt>
      <trkpt lat="43.82734" lon="3.5856">
        <ele>761.65602561441</ele>
        <time>2017-03-15T11:42:29Z</time>
      </trkpt>
      <trkpt lat="43.82729" lon="3.58562">
        <ele>759.25667823966</ele>
        <time>2017-03-15T11:42:34Z</time>
      </trkpt>
      <trkpt lat="43.82729" lon="3.58563">
        <ele>759.25667823966</ele>
        <time>2017-03-15T11:42:39Z</time>
      </trkpt>
      <trkpt lat="43.82724" lon="3.58567">
        <ele>759.25667823966</ele>
        <time>2017-03-15T11:42:54Z</time>
      </trkpt>
      <trkpt lat="43.82721" lon="3.58572">
        <ele>756.62839342362</ele>
        <time>2017-03-15T11:42:59Z</time>
      </trkpt>
      <trkpt lat="43.82717" lon="3.58576">
        <ele>756.62839342362</ele>
        <time>2017-03-15T11:43:04Z</time>
      </trkpt>
      <trkpt lat="43.82713" lon="3.58578">
        <ele>756.62839342362</ele>
        <time>2017-03-15T11:43:09Z</time>
      </trkpt>
      <trkpt lat="43.8271" lon="3.58579">
        <ele>754.13214152724</ele>
        <time>2017-03-15T11:43:14Z</time>
      </trkpt>
      <trkpt lat="43.82705" lon="3.58582">
        <ele>754.13214152724</ele>
        <time>2017-03-15T11:43:19Z</time>
      </trkpt>
      <trkpt lat="43.82702" lon="3.58584">
        <ele>751.72705209697</ele>
        <time>2017-03-15T11:43:24Z</time>
      </trkpt>
      <trkpt lat="43.82698" lon="3.58584">
        <ele>751.72705209697</ele>
        <time>2017-03-15T11:43:29Z</time>
      </trkpt>
      <trkpt lat="43.82696" lon="3.58584">
        <ele>751.72705209697</ele>
        <time>2017-03-15T11:43:34Z</time>
      </trkpt>
      <trkpt lat="43.82694" lon="3.58584">
        <ele>751.72705209697</ele>
        <time>2017-03-15T11:43:39Z</time>
      </trkpt>
      <trkpt lat="43.82693" lon="3.58584">
        <ele>751.72705209697</ele>
        <time>2017-03-15T11:43:44Z</time>
      </trkpt>
      <trkpt lat="43.82689" lon="3.5858">
        <ele>749.37472052275</ele>
        <time>2017-03-15T11:43:49Z</time>
      </trkpt>
      <trkpt lat="43.82684" lon="3.58577">
        <ele>749.37472052275</ele>
        <time>2017-03-15T11:43:54Z</time>
      </trkpt>
      <trkpt lat="43.82677" lon="3.58567">
        <ele>747.1255877246</ele>
        <time>2017-03-15T11:44:01Z</time>
      </trkpt>
      <trkpt lat="43.82671" lon="3.58564">
        <ele>747.1255877246</ele>
        <time>2017-03-15T11:44:04Z</time>
      </trkpt>
      <trkpt lat="43.82666" lon="3.58561">
        <ele>744.83844973515</ele>
        <time>2017-03-15T11:44:09Z</time>
      </trkpt>
      <trkpt lat="43.8266" lon="3.58559">
        <ele>744.83844973515</ele>
        <time>2017-03-15T11:44:14Z</time>
      </trkpt>
      <trkpt lat="43.82655" lon="3.58559">
        <ele>742.48314519316</ele>
        <time>2017-03-15T11:44:19Z</time>
      </trkpt>
      <trkpt lat="43.8265" lon="3.5856">
        <ele>742.48314519316</ele>
        <time>2017-03-15T11:44:24Z</time>
      </trkpt>
      <trkpt lat="43.82648" lon="3.58562">
        <ele>742.48314519316</ele>
        <time>2017-03-15T11:44:36Z</time>
      </trkpt>
      <trkpt lat="43.82634" lon="3.58536">
        <ele>739.2822181085</ele>
        <time>2017-03-15T11:45:15Z</time>
      </trkpt>
      <trkpt lat="43.82624" lon="3.58506">
        <ele>736.11699844418</ele>
        <time>2017-03-15T11:45:58Z</time>
      </trkpt>
      <trkpt lat="43.82622" lon="3.58494">
        <ele>736.11699844418</ele>
        <time>2017-03-15T11:45:59Z</time>
      </trkpt>
      <trkpt lat="43.82616" lon="3.58477">
        <ele>733.11190038998</ele>
        <time>2017-03-15T11:46:19Z</time>
      </trkpt>
      <trkpt lat="43.82596" lon="3.58405">
        <ele>730.53992449186</ele>
        <time>2017-03-15T11:47:27Z</time>
      </trkpt>
      <trkpt lat="43.82597" lon="3.58396">
        <ele>730.53992449186</ele>
        <time>2017-03-15T11:47:29Z</time>
      </trkpt>
      <trkpt lat="43.82597" lon="3.58388">
        <ele>728.4506937512</ele>
        <time>2017-03-15T11:47:45Z</time>
      </trkpt>
      <trkpt lat="43.82597" lon="3.58379">
        <ele>728.4506937512</ele>
        <time>2017-03-15T11:47:45Z</time>
      </trkpt>
      <trkpt lat="43.82583" lon="3.58375">
        <ele>727.06141214803</ele>
        <time>2017-03-15T11:48:26Z</time>
      </trkpt>
      <trkpt lat="43.82582" lon="3.58374">
        <ele>727.06141214803</ele>
        <time>2017-03-15T11:48:26Z</time>
      </trkpt>
      <trkpt lat="43.82567" lon="3.58367">
        <ele>726.59983899174</ele>
        <time>2017-03-15T11:49:13Z</time>
      </trkpt>
      <trkpt lat="43.82563" lon="3.58365">
        <ele>726.59983899174</ele>
        <time>2017-03-15T11:49:14Z</time>
      </trkpt>
      <trkpt lat="43.82554" lon="3.58352">
        <ele>726.61115194725</ele>
        <time>2017-03-15T11:49:34Z</time>
      </trkpt>
      <trkpt lat="43.82543" lon="3.58347">
        <ele>727.14785985691</ele>
        <time>2017-03-15T11:50:00Z</time>
      </trkpt>
      <trkpt lat="43.82541" lon="3.58345">
        <ele>727.14785985691</ele>
        <time>2017-03-15T11:50:00Z</time>
      </trkpt>
      <trkpt lat="43.82522" lon="3.58325">
        <ele>728.66035411955</ele>
        <time>2017-03-15T11:50:39Z</time>
      </trkpt>
      <trkpt lat="43.82514" lon="3.58314">
        <ele>731.54852328962</ele>
        <time>2017-03-15T11:52:55Z</time>
      </trkpt>
      <trkpt lat="43.82513" lon="3.58314">
        <ele>731.54852328962</ele>
        <time>2017-03-15T11:52:55Z</time>
      </trkpt>
      <trkpt lat="43.82503" lon="3.58321">
        <ele>734.66561828394</ele>
        <time>2017-03-15T11:53:46Z</time>
      </trkpt>
      <trkpt lat="43.82503" lon="3.58329">
        <ele>734.66561828394</ele>
        <time>2017-03-15T11:53:46Z</time>
      </trkpt>
      <trkpt lat="43.82494" lon="3.58354">
        <ele>737.75531142194</ele>
        <time>2017-03-15T11:54:20Z</time>
      </trkpt>
      <trkpt lat="43.82491" lon="3.58357">
        <ele>737.75531142194</ele>
        <time>2017-03-15T11:54:46Z</time>
      </trkpt>
      <trkpt lat="43.82492" lon="3.58363">
        <ele>737.75531142194</ele>
        <time>2017-03-15T11:55:54Z</time>
      </trkpt>
      <trkpt lat="43.82492" lon="3.58366">
        <ele>740.8826560923</ele>
        <time>2017-03-15T11:55:59Z</time>
      </trkpt>
      <trkpt lat="43.82489" lon="3.58368">
        <ele>740.8826560923</ele>
        <time>2017-03-15T11:56:21Z</time>
      </trkpt>
      <trkpt lat="43.82489" lon="3.58374">
        <ele>740.8826560923</ele>
        <time>2017-03-15T11:56:21Z</time>
      </trkpt>
      <trkpt lat="43.82487" lon="3.58377">
        <ele>743.90594582266</ele>
        <time>2017-03-15T11:56:29Z</time>
      </trkpt>
      <trkpt lat="43.82473" lon="3.58391">
        <ele>746.70850332538</ele>
        <time>2017-03-15T11:57:29Z</time>
      </trkpt>
      <trkpt lat="43.8244" lon="3.58392">
        <ele>749.11073510422</ele>
        <time>2017-03-15T11:59:34Z</time>
      </trkpt>
      <trkpt lat="43.82434" lon="3.58394">
        <ele>749.11073510422</ele>
        <time>2017-03-15T12:00:24Z</time>
      </trkpt>
      <trkpt lat="43.82433" lon="3.58395">
        <ele>749.11073510422</ele>
        <time>2017-03-15T12:14:04Z</time>
      </trkpt>
      <trkpt lat="43.82433" lon="3.58394">
        <ele>749.11073510422</ele>
        <time>2017-03-15T12:14:14Z</time>
      </trkpt>
      <trkpt lat="43.8244" lon="3.58389">
        <ele>750.78881823611</ele>
        <time>2017-03-15T12:15:21Z</time>
      </trkpt>
      <trkpt lat="43.82444" lon="3.58393">
        <ele>750.78881823611</ele>
        <time>2017-03-15T12:16:17Z</time>
      </trkpt>
      <trkpt lat="43.82458" lon="3.58388">
        <ele>752.56881683054</ele>
        <time>2017-03-15T12:16:30Z</time>
      </trkpt>
      <trkpt lat="43.82461" lon="3.58391">
        <ele>752.56881683054</ele>
        <time>2017-03-15T12:16:33Z</time>
      </trkpt>
      <trkpt lat="43.82462" lon="3.58391">
        <ele>752.56881683054</ele>
        <time>2017-03-15T12:16:35Z</time>
      </trkpt>
      <trkpt lat="43.82466" lon="3.58396">
        <ele>754.32235760982</ele>
        <time>2017-03-15T12:16:49Z</time>
      </trkpt>
      <trkpt lat="43.82486" lon="3.58387">
        <ele>756.00266312793</ele>
        <time>2017-03-15T12:17:29Z</time>
      </trkpt>
      <trkpt lat="43.82488" lon="3.58383">
        <ele>756.00266312793</ele>
        <time>2017-03-15T12:17:29Z</time>
      </trkpt>
      <trkpt lat="43.82494" lon="3.58373">
        <ele>757.65311367987</ele>
        <time>2017-03-15T12:17:42Z</time>
      </trkpt>
      <trkpt lat="43.82494" lon="3.58372">
        <ele>757.65311367987</ele>
        <time>2017-03-15T12:17:44Z</time>
      </trkpt>
      <trkpt lat="43.82493" lon="3.58372">
        <ele>757.65311367987</ele>
        <time>2017-03-15T12:17:49Z</time>
      </trkpt>
      <trkpt lat="43.82508" lon="3.5834">
        <ele>759.77520479384</ele>
        <time>2017-03-15T12:18:34Z</time>
      </trkpt>
      <trkpt lat="43.82512" lon="3.58317">
        <ele>762.2414888609</ele>
        <time>2017-03-15T12:19:21Z</time>
      </trkpt>
      <trkpt lat="43.82519" lon="3.58319">
        <ele>762.2414888609</ele>
        <time>2017-03-15T12:19:47Z</time>
      </trkpt>
      <trkpt lat="43.82522" lon="3.5832">
        <ele>764.67360303336</ele>
        <time>2017-03-15T12:19:48Z</time>
      </trkpt>
      <trkpt lat="43.82528" lon="3.58291">
        <ele>766.95175363675</ele>
        <time>2017-03-15T12:20:31Z</time>
      </trkpt>
      <trkpt lat="43.82537" lon="3.58249">
        <ele>768.90784767783</ele>
        <time>2017-03-15T12:21:05Z</time>
      </trkpt>
      <trkpt lat="43.82536" lon="3.58243">
        <ele>768.90784767783</ele>
        <time>2017-03-15T12:21:05Z</time>
      </trkpt>
      <trkpt lat="43.82527" lon="3.58223">
        <ele>770.48804457897</ele>
        <time>2017-03-15T12:21:43Z</time>
      </trkpt>
      <trkpt lat="43.8253" lon="3.58196">
        <ele>771.51394268185</ele>
        <time>2017-03-15T12:22:15Z</time>
      </trkpt>
      <trkpt lat="43.82534" lon="3.5818">
        <ele>771.9804542792</ele>
        <time>2017-03-15T12:22:54Z</time>
      </trkpt>
      <trkpt lat="43.82534" lon="3.58176">
        <ele>771.9804542792</ele>
        <time>2017-03-15T12:22:54Z</time>
      </trkpt>
      <trkpt lat="43.82533" lon="3.5817">
        <ele>771.9804542792</ele>
        <time>2017-03-15T12:23:16Z</time>
      </trkpt>
      <trkpt lat="43.82536" lon="3.58163">
        <ele>771.94220806066</ele>
        <time>2017-03-15T12:23:23Z</time>
      </trkpt>
      <trkpt lat="43.82533" lon="3.58148">
        <ele>771.45135776459</ele>
        <time>2017-03-15T12:24:00Z</time>
      </trkpt>
      <trkpt lat="43.82527" lon="3.58148">
        <ele>771.45135776459</ele>
        <time>2017-03-15T12:24:00Z</time>
      </trkpt>
      <trkpt lat="43.8251" lon="3.58129">
        <ele>770.09645018395</ele>
        <time>2017-03-15T12:24:45Z</time>
      </trkpt>
      <trkpt lat="43.82508" lon="3.58098">
        <ele>767.88787506278</ele>
        <time>2017-03-15T12:25:26Z</time>
      </trkpt>
      <trkpt lat="43.82506" lon="3.58093">
        <ele>767.88787506278</ele>
        <time>2017-03-15T12:25:31Z</time>
      </trkpt>
      <trkpt lat="43.82497" lon="3.5808">
        <ele>765.28447132302</ele>
        <time>2017-03-15T12:25:51Z</time>
      </trkpt>
      <trkpt lat="43.82486" lon="3.58026">
        <ele>760.82466891288</ele>
        <time>2017-03-15T12:26:51Z</time>
      </trkpt>
      <trkpt lat="43.82486" lon="3.58023">
        <ele>760.82466891288</ele>
        <time>2017-03-15T12:26:52Z</time>
      </trkpt>
      <trkpt lat="43.82473" lon="3.5794">
        <ele>754.47089420132</ele>
        <time>2017-03-15T12:28:40Z</time>
      </trkpt>
      <trkpt lat="43.82472" lon="3.57937">
        <ele>754.47089420132</ele>
        <time>2017-03-15T12:28:41Z</time>
      </trkpt>
      <trkpt lat="43.82468" lon="3.57928">
        <ele>748.47057440627</ele>
        <time>2017-03-15T12:28:57Z</time>
      </trkpt>
      <trkpt lat="43.82461" lon="3.57921">
        <ele>748.47057440627</ele>
        <time>2017-03-15T12:28:57Z</time>
      </trkpt>
      <trkpt lat="43.8245" lon="3.57882">
        <ele>742.13804226084</ele>
        <time>2017-03-15T12:29:47Z</time>
      </trkpt>
      <trkpt lat="43.82449" lon="3.57876">
        <ele>742.13804226084</ele>
        <time>2017-03-15T12:29:49Z</time>
      </trkpt>
      <trkpt lat="43.82443" lon="3.57866">
        <ele>736.03493308573</ele>
        <time>2017-03-15T12:30:01Z</time>
      </trkpt>
      <trkpt lat="43.82414" lon="3.57773">
        <ele>729.28293575836</ele>
        <time>2017-03-15T12:31:53Z</time>
      </trkpt>
      <trkpt lat="43.82404" lon="3.57744">
        <ele>722.72714844139</ele>
        <time>2017-03-15T12:32:54Z</time>
      </trkpt>
      <trkpt lat="43.82403" lon="3.57744">
        <ele>722.72714844139</ele>
        <time>2017-03-15T12:32:54Z</time>
      </trkpt>
      <trkpt lat="43.82408" lon="3.57732">
        <ele>716.58775621127</ele>
        <time>2017-03-15T12:33:50Z</time>
      </trkpt>
      <trkpt lat="43.82405" lon="3.57675">
        <ele>710.86556245809</ele>
        <time>2017-03-15T12:35:09Z</time>
      </trkpt>
      <trkpt lat="43.82401" lon="3.57654">
        <ele>705.57423961899</ele>
        <time>2017-03-15T12:35:30Z</time>
      </trkpt>
      <trkpt lat="43.82402" lon="3.57653">
        <ele>705.57423961899</ele>
        <time>2017-03-15T12:35:32Z</time>
      </trkpt>
      <trkpt lat="43.82372" lon="3.576">
        <ele>700.14846576224</ele>
        <time>2017-03-15T12:37:15Z</time>
      </trkpt>
      <trkpt lat="43.82366" lon="3.576">
        <ele>700.14846576224</ele>
        <time>2017-03-15T12:37:20Z</time>
      </trkpt>
      <trkpt lat="43.82337" lon="3.57572">
        <ele>694.77061355633</ele>
        <time>2017-03-15T12:38:06Z</time>
      </trkpt>
      <trkpt lat="43.82334" lon="3.57567">
        <ele>694.77061355633</ele>
        <time>2017-03-15T12:38:06Z</time>
      </trkpt>
      <trkpt lat="43.82332" lon="3.57558">
        <ele>689.68120965755</ele>
        <time>2017-03-15T12:38:15Z</time>
      </trkpt>
      <trkpt lat="43.82248" lon="3.57452">
        <ele>683.44464038815</ele>
        <time>2017-03-15T12:40:25Z</time>
      </trkpt>
      <trkpt lat="43.82247" lon="3.5745">
        <ele>683.44464038815</ele>
        <time>2017-03-15T12:40:25Z</time>
      </trkpt>
      <trkpt lat="43.82233" lon="3.57436">
        <ele>677.73108647986</ele>
        <time>2017-03-15T12:40:50Z</time>
      </trkpt>
      <trkpt lat="43.82216" lon="3.57385">
        <ele>672.09743118512</ele>
        <time>2017-03-15T12:41:34Z</time>
      </trkpt>
      <trkpt lat="43.82214" lon="3.5738">
        <ele>672.09743118512</ele>
        <time>2017-03-15T12:41:41Z</time>
      </trkpt>
      <trkpt lat="43.82213" lon="3.57376">
        <ele>672.09743118512</ele>
        <time>2017-03-15T12:41:50Z</time>
      </trkpt>
      <trkpt lat="43.82212" lon="3.57372">
        <ele>666.85302651042</ele>
        <time>2017-03-15T12:42:08Z</time>
      </trkpt>
      <trkpt lat="43.82213" lon="3.57372">
        <ele>666.85302651042</ele>
        <time>2017-03-15T12:42:09Z</time>
      </trkpt>
      <trkpt lat="43.82212" lon="3.57372">
        <ele>666.85302651042</ele>
        <time>2017-03-15T12:42:32Z</time>
      </trkpt>
      <trkpt lat="43.82198" lon="3.5736">
        <ele>661.90829883478</ele>
        <time>2017-03-15T12:42:59Z</time>
      </trkpt>
      <trkpt lat="43.82194" lon="3.57357">
        <ele>661.90829883478</ele>
        <time>2017-03-15T12:42:59Z</time>
      </trkpt>
      <trkpt lat="43.82174" lon="3.5737">
        <ele>657.25104815246</ele>
        <time>2017-03-15T12:43:46Z</time>
      </trkpt>
      <trkpt lat="43.82174" lon="3.57371">
        <ele>657.25104815246</ele>
        <time>2017-03-15T12:43:46Z</time>
      </trkpt>
      <trkpt lat="43.82169" lon="3.57378">
        <ele>657.25104815246</ele>
        <time>2017-03-15T12:44:00Z</time>
      </trkpt>
      <trkpt lat="43.82153" lon="3.57396">
        <ele>652.63816688426</ele>
        <time>2017-03-15T12:44:44Z</time>
      </trkpt>
      <trkpt lat="43.82159" lon="3.57421">
        <ele>647.51241025385</ele>
        <time>2017-03-15T12:46:01Z</time>
      </trkpt>
      <trkpt lat="43.82159" lon="3.57422">
        <ele>647.51241025385</ele>
        <time>2017-03-15T12:46:01Z</time>
      </trkpt>
      <trkpt lat="43.82162" lon="3.57426">
        <ele>647.51241025385</ele>
        <time>2017-03-15T12:46:07Z</time>
      </trkpt>
      <trkpt lat="43.82162" lon="3.57427">
        <ele>647.51241025385</ele>
        <time>2017-03-15T12:46:09Z</time>
      </trkpt>
      <trkpt lat="43.82163" lon="3.57434">
        <ele>642.81402028147</ele>
        <time>2017-03-15T12:46:19Z</time>
      </trkpt>
      <trkpt lat="43.82153" lon="3.57436">
        <ele>638.30291193028</ele>
        <time>2017-03-15T12:47:00Z</time>
      </trkpt>
      <trkpt lat="43.82154" lon="3.57441">
        <ele>638.30291193028</ele>
        <time>2017-03-15T12:47:00Z</time>
      </trkpt>
      <trkpt lat="43.82161" lon="3.57464">
        <ele>633.88541685708</ele>
        <time>2017-03-15T12:47:31Z</time>
      </trkpt>
      <trkpt lat="43.82158" lon="3.57458">
        <ele>633.88541685708</ele>
        <time>2017-03-15T12:47:31Z</time>
      </trkpt>
      <trkpt lat="43.8215" lon="3.57464">
        <ele>629.546155486</ele>
        <time>2017-03-15T12:48:00Z</time>
      </trkpt>
      <trkpt lat="43.82143" lon="3.57481">
        <ele>624.89559510104</ele>
        <time>2017-03-15T12:49:00Z</time>
      </trkpt>
      <trkpt lat="43.82139" lon="3.57491">
        <ele>624.89559510104</ele>
        <time>2017-03-15T12:49:15Z</time>
      </trkpt>
      <trkpt lat="43.8214" lon="3.575">
        <ele>620.42358401587</ele>
        <time>2017-03-15T12:49:16Z</time>
      </trkpt>
      <trkpt lat="43.82142" lon="3.57508">
        <ele>620.42358401587</ele>
        <time>2017-03-15T12:49:24Z</time>
      </trkpt>
      <trkpt lat="43.82141" lon="3.57517">
        <ele>616.07874538588</ele>
        <time>2017-03-15T12:49:47Z</time>
      </trkpt>
      <trkpt lat="43.82131" lon="3.57504">
        <ele>612.02894771322</ele>
        <time>2017-03-15T12:50:05Z</time>
      </trkpt>
      <trkpt lat="43.82127" lon="3.57498">
        <ele>612.02894771322</ele>
        <time>2017-03-15T12:50:05Z</time>
      </trkpt>
      <trkpt lat="43.82126" lon="3.5749">
        <ele>608.32769745976</ele>
        <time>2017-03-15T12:50:09Z</time>
      </trkpt>
      <trkpt lat="43.82123" lon="3.57483">
        <ele>608.32769745976</ele>
        <time>2017-03-15T12:50:18Z</time>
      </trkpt>
      <trkpt lat="43.82122" lon="3.57482">
        <ele>608.32769745976</ele>
        <time>2017-03-15T12:50:23Z</time>
      </trkpt>
      <trkpt lat="43.82119" lon="3.57481">
        <ele>604.89358338637</ele>
        <time>2017-03-15T12:50:25Z</time>
      </trkpt>
      <trkpt lat="43.82107" lon="3.57473">
        <ele>601.77983384782</ele>
        <time>2017-03-15T12:50:39Z</time>
      </trkpt>
      <trkpt lat="43.82097" lon="3.57459">
        <ele>598.81842982562</ele>
        <time>2017-03-15T12:50:57Z</time>
      </trkpt>
      <trkpt lat="43.82095" lon="3.57458">
        <ele>598.81842982562</ele>
        <time>2017-03-15T12:50:58Z</time>
      </trkpt>
      <trkpt lat="43.82098" lon="3.57483">
        <ele>595.62243833735</ele>
        <time>2017-03-15T12:51:39Z</time>
      </trkpt>
      <trkpt lat="43.82095" lon="3.57484">
        <ele>595.62243833735</ele>
        <time>2017-03-15T12:51:39Z</time>
      </trkpt>
      <trkpt lat="43.82051" lon="3.57441">
        <ele>591.40144245369</ele>
        <time>2017-03-15T12:52:40Z</time>
      </trkpt>
      <trkpt lat="43.82025" lon="3.57435">
        <ele>586.52099260496</ele>
        <time>2017-03-15T12:53:34Z</time>
      </trkpt>
      <trkpt lat="43.82016" lon="3.57438">
        <ele>582.01316588677</ele>
        <time>2017-03-15T12:53:50Z</time>
      </trkpt>
      <trkpt lat="43.82008" lon="3.57436">
        <ele>582.01316588677</ele>
        <time>2017-03-15T12:54:00Z</time>
      </trkpt>
      <trkpt lat="43.82004" lon="3.57437">
        <ele>577.82420606981</ele>
        <time>2017-03-15T12:54:06Z</time>
      </trkpt>
      <trkpt lat="43.82002" lon="3.57437">
        <ele>577.82420606981</ele>
        <time>2017-03-15T12:54:09Z</time>
      </trkpt>
      <trkpt lat="43.81995" lon="3.57444">
        <ele>573.84558119216</ele>
        <time>2017-03-15T12:54:24Z</time>
      </trkpt>
      <trkpt lat="43.81985" lon="3.57449">
        <ele>570.16331043341</ele>
        <time>2017-03-15T12:54:43Z</time>
      </trkpt>
      <trkpt lat="43.81981" lon="3.57451">
        <ele>570.16331043341</ele>
        <time>2017-03-15T12:54:44Z</time>
      </trkpt>
      <trkpt lat="43.81964" lon="3.57462">
        <ele>566.68316503189</ele>
        <time>2017-03-15T12:55:01Z</time>
      </trkpt>
      <trkpt lat="43.8195" lon="3.57472">
        <ele>563.33153136121</ele>
        <time>2017-03-15T12:55:26Z</time>
      </trkpt>
      <trkpt lat="43.81945" lon="3.57474">
        <ele>563.33153136121</ele>
        <time>2017-03-15T12:55:27Z</time>
      </trkpt>
      <trkpt lat="43.81928" lon="3.57482">
        <ele>558.80034808166</ele>
        <time>2017-03-15T12:56:32Z</time>
      </trkpt>
      <trkpt lat="43.81919" lon="3.57478">
        <ele>554.37394798516</ele>
        <time>2017-03-15T12:56:57Z</time>
      </trkpt>
      <trkpt lat="43.81908" lon="3.57474">
        <ele>550.39165011818</ele>
        <time>2017-03-15T12:56:57Z</time>
      </trkpt>
      <trkpt lat="43.8188" lon="3.5752">
        <ele>545.66773461359</ele>
        <time>2017-03-15T12:58:04Z</time>
      </trkpt>
      <trkpt lat="43.81876" lon="3.57541">
        <ele>541.19517108838</ele>
        <time>2017-03-15T12:58:20Z</time>
      </trkpt>
      <trkpt lat="43.81874" lon="3.57543">
        <ele>541.19517108838</ele>
        <time>2017-03-15T12:58:26Z</time>
      </trkpt>
      <trkpt lat="43.81837" lon="3.57587">
        <ele>536.39442453005</ele>
        <time>2017-03-15T12:59:45Z</time>
      </trkpt>
      <trkpt lat="43.81829" lon="3.57592">
        <ele>536.39442453005</ele>
        <time>2017-03-15T12:59:45Z</time>
      </trkpt>
      <trkpt lat="43.81818" lon="3.57597">
        <ele>532.04076875167</ele>
        <time>2017-03-15T13:00:00Z</time>
      </trkpt>
      <trkpt lat="43.81817" lon="3.57605">
        <ele>532.04076875167</ele>
        <time>2017-03-15T13:00:19Z</time>
      </trkpt>
      <trkpt lat="43.81845" lon="3.57615">
        <ele>527.53976859983</ele>
        <time>2017-03-15T13:01:00Z</time>
      </trkpt>
      <trkpt lat="43.8185" lon="3.57616">
        <ele>527.53976859983</ele>
        <time>2017-03-15T13:01:00Z</time>
      </trkpt>
      <trkpt lat="43.81861" lon="3.57625">
        <ele>523.40740459553</ele>
        <time>2017-03-15T13:01:30Z</time>
      </trkpt>
      <trkpt lat="43.81848" lon="3.57629">
        <ele>519.78918289784</ele>
        <time>2017-03-15T13:01:45Z</time>
      </trkpt>
      <trkpt lat="43.81853" lon="3.57652">
        <ele>516.32842770584</ele>
        <time>2017-03-15T13:02:19Z</time>
      </trkpt>
      <trkpt lat="43.81878" lon="3.57665">
        <ele>512.78062580054</ele>
        <time>2017-03-15T13:03:05Z</time>
      </trkpt>
      <trkpt lat="43.81875" lon="3.57679">
        <ele>509.09235005417</ele>
        <time>2017-03-15T13:03:52Z</time>
      </trkpt>
      <trkpt lat="43.81878" lon="3.57683">
        <ele>509.09235005417</ele>
        <time>2017-03-15T13:03:52Z</time>
      </trkpt>
      <trkpt lat="43.81871" lon="3.57697">
        <ele>505.63237191452</ele>
        <time>2017-03-15T13:04:10Z</time>
      </trkpt>
      <trkpt lat="43.81846" lon="3.57708">
        <ele>502.28054457097</ele>
        <time>2017-03-15T13:04:44Z</time>
      </trkpt>
      <trkpt lat="43.81844" lon="3.57708">
        <ele>502.28054457097</ele>
        <time>2017-03-15T13:04:49Z</time>
      </trkpt>
      <trkpt lat="43.81844" lon="3.57708">
        <ele>502.28054457097</ele>
        <time>2017-03-15T13:04:59Z</time>
      </trkpt>
      <trkpt lat="43.81822" lon="3.57704">
        <ele>496.66267191429</ele>
        <time>2017-03-15T13:09:11Z</time>
      </trkpt>
      <trkpt lat="43.81822" lon="3.57758">
        <ele>491.18244468615</ele>
        <time>2017-03-15T13:10:24Z</time>
      </trkpt>
      <trkpt lat="43.81822" lon="3.57761">
        <ele>491.18244468615</ele>
        <time>2017-03-15T13:10:24Z</time>
      </trkpt>
      <trkpt lat="43.81823" lon="3.57764">
        <ele>491.18244468615</ele>
        <time>2017-03-15T13:10:29Z</time>
      </trkpt>
      <trkpt lat="43.81846" lon="3.57782">
        <ele>485.67432407786</ele>
        <time>2017-03-15T13:11:23Z</time>
      </trkpt>
      <trkpt lat="43.81852" lon="3.57782">
        <ele>485.67432407786</ele>
        <time>2017-03-15T13:11:24Z</time>
      </trkpt>
      <trkpt lat="43.81861" lon="3.57787">
        <ele>480.51819252178</ele>
        <time>2017-03-15T13:11:45Z</time>
      </trkpt>
      <trkpt lat="43.81863" lon="3.5779">
        <ele>480.51819252178</ele>
        <time>2017-03-15T13:12:32Z</time>
      </trkpt>
      <trkpt lat="43.81834" lon="3.57823">
        <ele>474.91211391913</ele>
        <time>2017-03-15T13:13:21Z</time>
      </trkpt>
      <trkpt lat="43.81834" lon="3.57827">
        <ele>474.91211391913</ele>
        <time>2017-03-15T13:13:48Z</time>
      </trkpt>
      <trkpt lat="43.81828" lon="3.57848">
        <ele>468.41691402283</ele>
        <time>2017-03-15T13:15:17Z</time>
      </trkpt>
      <trkpt lat="43.81834" lon="3.57863">
        <ele>462.28540128419</ele>
        <time>2017-03-15T13:15:44Z</time>
      </trkpt>
      <trkpt lat="43.81834" lon="3.57866">
        <ele>462.28540128419</ele>
        <time>2017-03-15T13:15:44Z</time>
      </trkpt>
      <trkpt lat="43.81827" lon="3.57882">
        <ele>456.61085118412</ele>
        <time>2017-03-15T13:16:07Z</time>
      </trkpt>
      <trkpt lat="43.81802" lon="3.57917">
        <ele>450.8154259375</ele>
        <time>2017-03-15T13:16:51Z</time>
      </trkpt>
      <trkpt lat="43.81801" lon="3.57918">
        <ele>450.8154259375</ele>
        <time>2017-03-15T13:16:51Z</time>
      </trkpt>
      <trkpt lat="43.81786" lon="3.57932">
        <ele>445.34395558875</ele>
        <time>2017-03-15T13:17:12Z</time>
      </trkpt>
      <trkpt lat="43.8179" lon="3.57941">
        <ele>445.34395558875</ele>
        <time>2017-03-15T13:17:18Z</time>
      </trkpt>
      <trkpt lat="43.81782" lon="3.57979">
        <ele>437.92713408431</ele>
        <time>2017-03-15T13:18:44Z</time>
      </trkpt>
      <trkpt lat="43.81776" lon="3.5798">
        <ele>437.92713408431</ele>
        <time>2017-03-15T13:18:49Z</time>
      </trkpt>
      <trkpt lat="43.81772" lon="3.57985">
        <ele>430.94958137046</ele>
        <time>2017-03-15T13:19:04Z</time>
      </trkpt>
      <trkpt lat="43.81768" lon="3.57989">
        <ele>430.94958137046</ele>
        <time>2017-03-15T13:19:04Z</time>
      </trkpt>
      <trkpt lat="43.81779" lon="3.58016">
        <ele>423.40573203031</ele>
        <time>2017-03-15T13:19:55Z</time>
      </trkpt>
      <trkpt lat="43.81764" lon="3.5805">
        <ele>415.28767369431</ele>
        <time>2017-03-15T13:20:35Z</time>
      </trkpt>
      <trkpt lat="43.81754" lon="3.58074">
        <ele>407.39657740614</ele>
        <time>2017-03-15T13:20:50Z</time>
      </trkpt>
      <trkpt lat="43.81758" lon="3.58075">
        <ele>407.39657740614</ele>
        <time>2017-03-15T13:20:54Z</time>
      </trkpt>
      <trkpt lat="43.81765" lon="3.58073">
        <ele>400.07046680206</ele>
        <time>2017-03-15T13:21:04Z</time>
      </trkpt>
      <trkpt lat="43.81769" lon="3.58073">
        <ele>400.07046680206</ele>
        <time>2017-03-15T13:21:09Z</time>
      </trkpt>
      <trkpt lat="43.8178" lon="3.5807">
        <ele>393.1308125283</ele>
        <time>2017-03-15T13:21:19Z</time>
      </trkpt>
      <trkpt lat="43.81786" lon="3.5807">
        <ele>393.1308125283</ele>
        <time>2017-03-15T13:21:24Z</time>
      </trkpt>
      <trkpt lat="43.81795" lon="3.58073">
        <ele>386.56946933012</ele>
        <time>2017-03-15T13:21:34Z</time>
      </trkpt>
      <trkpt lat="43.818" lon="3.58074">
        <ele>386.56946933012</ele>
        <time>2017-03-15T13:21:39Z</time>
      </trkpt>
      <trkpt lat="43.81813" lon="3.58079">
        <ele>379.85885416161</ele>
        <time>2017-03-15T13:21:56Z</time>
      </trkpt>
      <trkpt lat="43.81807" lon="3.58085">
        <ele>379.85885416161</ele>
        <time>2017-03-15T13:22:08Z</time>
      </trkpt>
      <trkpt lat="43.81788" lon="3.58115">
        <ele>372.45273548619</ele>
        <time>2017-03-15T13:22:46Z</time>
      </trkpt>
      <trkpt lat="43.81787" lon="3.58118">
        <ele>372.45273548619</ele>
        <time>2017-03-15T13:22:49Z</time>
      </trkpt>
      <trkpt lat="43.81758" lon="3.58171">
        <ele>364.22146442458</ele>
        <time>2017-03-15T13:24:00Z</time>
      </trkpt>
      <trkpt lat="43.81737" lon="3.58207">
        <ele>356.04140863087</ele>
        <time>2017-03-15T13:24:39Z</time>
      </trkpt>
      <trkpt lat="43.81734" lon="3.58213">
        <ele>356.04140863087</ele>
        <time>2017-03-15T13:24:41Z</time>
      </trkpt>
      <trkpt lat="43.81728" lon="3.58225">
        <ele>348.37835137024</ele>
        <time>2017-03-15T13:24:56Z</time>
      </trkpt>
      <trkpt lat="43.81708" lon="3.58258">
        <ele>340.92723849994</ele>
        <time>2017-03-15T13:25:38Z</time>
      </trkpt>
      <trkpt lat="43.81703" lon="3.58265">
        <ele>340.92723849994</ele>
        <time>2017-03-15T13:25:38Z</time>
      </trkpt>
      <trkpt lat="43.81671" lon="3.58312">
        <ele>332.72729668395</ele>
        <time>2017-03-15T13:26:47Z</time>
      </trkpt>
      <trkpt lat="43.8167" lon="3.58313">
        <ele>332.72729668395</ele>
        <time>2017-03-15T13:26:49Z</time>
      </trkpt>
      <trkpt lat="43.81652" lon="3.58352">
        <ele>324.51867048566</ele>
        <time>2017-03-15T13:28:17Z</time>
      </trkpt>
      <trkpt lat="43.81656" lon="3.58421">
        <ele>316.17991375741</ele>
        <time>2017-03-15T13:30:19Z</time>
      </trkpt>
      <trkpt lat="43.81659" lon="3.58423">
        <ele>316.17991375741</ele>
        <time>2017-03-15T13:30:24Z</time>
      </trkpt>
      <trkpt lat="43.81661" lon="3.58427">
        <ele>316.17991375741</ele>
        <time>2017-03-15T13:30:34Z</time>
      </trkpt>
      <trkpt lat="43.81661" lon="3.58427">
        <ele>316.17991375741</ele>
        <time>2017-03-15T13:30:39Z</time>
      </trkpt>
      <trkpt lat="43.81657" lon="3.5844">
        <ele>308.62182997525</ele>
        <time>2017-03-15T13:30:55Z</time>
      </trkpt>
      <trkpt lat="43.81648" lon="3.58457">
        <ele>301.80681923379</ele>
        <time>2017-03-15T13:31:25Z</time>
      </trkpt>
      <trkpt lat="43.81644" lon="3.58462">
        <ele>301.80681923379</ele>
        <time>2017-03-15T13:31:25Z</time>
      </trkpt>
      <trkpt lat="43.81636" lon="3.58471">
        <ele>295.72655560354</ele>
        <time>2017-03-15T13:31:40Z</time>
      </trkpt>
      <trkpt lat="43.81634" lon="3.58477">
        <ele>295.72655560354</ele>
        <time>2017-03-15T13:31:41Z</time>
      </trkpt>
      <trkpt lat="43.81619" lon="3.58493">
        <ele>290.24134556056</ele>
        <time>2017-03-15T13:32:08Z</time>
      </trkpt>
      <trkpt lat="43.81614" lon="3.58499">
        <ele>290.24134556056</ele>
        <time>2017-03-15T13:32:08Z</time>
      </trkpt>
      <trkpt lat="43.81602" lon="3.58514">
        <ele>284.64343796337</ele>
        <time>2017-03-15T13:32:41Z</time>
      </trkpt>
      <trkpt lat="43.81599" lon="3.58514">
        <ele>284.64343796337</ele>
        <time>2017-03-15T13:32:41Z</time>
      </trkpt>
      <trkpt lat="43.81601" lon="3.5855">
        <ele>277.80163007511</ele>
        <time>2017-03-15T13:34:08Z</time>
      </trkpt>
      <trkpt lat="43.81592" lon="3.5856">
        <ele>271.52452975971</ele>
        <time>2017-03-15T13:34:37Z</time>
      </trkpt>
      <trkpt lat="43.81589" lon="3.58562">
        <ele>271.52452975971</ele>
        <time>2017-03-15T13:34:42Z</time>
      </trkpt>
      <trkpt lat="43.81572" lon="3.58572">
        <ele>265.87209257832</ele>
        <time>2017-03-15T13:35:05Z</time>
      </trkpt>
      <trkpt lat="43.81576" lon="3.58576">
        <ele>265.87209257832</ele>
        <time>2017-03-15T13:35:05Z</time>
      </trkpt>
      <trkpt lat="43.81573" lon="3.58594">
        <ele>260.59533334884</ele>
        <time>2017-03-15T13:35:32Z</time>
      </trkpt>
      <trkpt lat="43.81557" lon="3.58588">
        <ele>255.89470102321</ele>
        <time>2017-03-15T13:35:38Z</time>
      </trkpt>
      <trkpt lat="43.81556" lon="3.58587">
        <ele>255.89470102321</ele>
        <time>2017-03-15T13:35:39Z</time>
      </trkpt>
      <trkpt lat="43.8157" lon="3.58619">
        <ele>250.88776221996</ele>
        <time>2017-03-15T13:36:26Z</time>
      </trkpt>
      <trkpt lat="43.81571" lon="3.58642">
        <ele>246.01143319088</ele>
        <time>2017-03-15T13:36:59Z</time>
      </trkpt>
      <trkpt lat="43.81541" lon="3.58649">
        <ele>241.16569818778</ele>
        <time>2017-03-15T13:37:29Z</time>
      </trkpt>
      <trkpt lat="43.81536" lon="3.58651">
        <ele>241.16569818778</ele>
        <time>2017-03-15T13:37:37Z</time>
      </trkpt>
      <trkpt lat="43.81517" lon="3.58655">
        <ele>236.45949591297</ele>
        <time>2017-03-15T13:37:56Z</time>
      </trkpt>
      <trkpt lat="43.81468" lon="3.58643">
        <ele>231.38805840358</ele>
        <time>2017-03-15T13:38:41Z</time>
      </trkpt>
      <trkpt lat="43.81461" lon="3.5864">
        <ele>231.38805840358</ele>
        <time>2017-03-15T13:38:44Z</time>
      </trkpt>
      <trkpt lat="43.81416" lon="3.58644">
        <ele>225.96025830889</ele>
        <time>2017-03-15T13:39:32Z</time>
      </trkpt>
      <trkpt lat="43.81394" lon="3.58657">
        <ele>220.80497691892</ele>
        <time>2017-03-15T13:39:54Z</time>
      </trkpt>
      <trkpt lat="43.81341" lon="3.587">
        <ele>215.76916134665</ele>
        <time>2017-03-15T13:41:04Z</time>
      </trkpt>
      <trkpt lat="43.81337" lon="3.58706">
        <ele>215.76916134665</ele>
        <time>2017-03-15T13:41:04Z</time>
      </trkpt>
      <trkpt lat="43.81328" lon="3.58709">
        <ele>211.38799532695</ele>
        <time>2017-03-15T13:41:24Z</time>
      </trkpt>
      <trkpt lat="43.8133" lon="3.5871">
        <ele>211.38799532695</ele>
        <time>2017-03-15T13:41:44Z</time>
      </trkpt>
      <trkpt lat="43.81308" lon="3.58735">
        <ele>207.42056356316</ele>
        <time>2017-03-15T13:42:44Z</time>
      </trkpt>
      <trkpt lat="43.81308" lon="3.58736">
        <ele>207.42056356316</ele>
        <time>2017-03-15T13:42:50Z</time>
      </trkpt>
      <trkpt lat="43.81307" lon="3.58743">
        <ele>207.42056356316</ele>
        <time>2017-03-15T13:43:24Z</time>
      </trkpt>
      <trkpt lat="43.81305" lon="3.58743">
        <ele>207.42056356316</ele>
        <time>2017-03-15T13:43:29Z</time>
      </trkpt>
      <trkpt lat="43.81304" lon="3.58743">
        <ele>207.42056356316</ele>
        <time>2017-03-15T13:43:34Z</time>
      </trkpt>
      <trkpt lat="43.81299" lon="3.58743">
        <ele>203.945154677</ele>
        <time>2017-03-15T13:43:54Z</time>
      </trkpt>
      <trkpt lat="43.81273" lon="3.5879">
        <ele>200.86004355467</ele>
        <time>2017-03-15T13:44:32Z</time>
      </trkpt>
      <trkpt lat="43.81261" lon="3.58798">
        <ele>198.34376514733</ele>
        <time>2017-03-15T13:44:45Z</time>
      </trkpt>
      <trkpt lat="43.81248" lon="3.58879">
        <ele>195.10471210566</ele>
        <time>2017-03-15T13:46:16Z</time>
      </trkpt>
      <trkpt lat="43.81252" lon="3.58901">
        <ele>192.0811423742</ele>
        <time>2017-03-15T13:46:39Z</time>
      </trkpt>
      <trkpt lat="43.81254" lon="3.58905">
        <ele>192.0811423742</ele>
        <time>2017-03-15T13:46:44Z</time>
      </trkpt>
      <trkpt lat="43.81255" lon="3.5891">
        <ele>192.0811423742</ele>
        <time>2017-03-15T13:46:49Z</time>
      </trkpt>
      <trkpt lat="43.81254" lon="3.58912">
        <ele>189.33489418324</ele>
        <time>2017-03-15T13:47:05Z</time>
      </trkpt>
      <trkpt lat="43.81265" lon="3.58953">
        <ele>186.18766647547</ele>
        <time>2017-03-15T13:47:44Z</time>
      </trkpt>
      <trkpt lat="43.81264" lon="3.59028">
        <ele>182.14197214764</ele>
        <time>2017-03-15T13:48:53Z</time>
      </trkpt>
      <trkpt lat="43.81271" lon="3.59051">
        <ele>177.93568404517</ele>
        <time>2017-03-15T13:49:30Z</time>
      </trkpt>
      <trkpt lat="43.8132" lon="3.59055">
        <ele>173.14344297593</ele>
        <time>2017-03-15T13:50:39Z</time>
      </trkpt>
      <trkpt lat="43.8133" lon="3.59061">
        <ele>168.92935993685</ele>
        <time>2017-03-15T13:50:48Z</time>
      </trkpt>
      <trkpt lat="43.81332" lon="3.59075">
        <ele>165.33298834802</ele>
        <time>2017-03-15T13:51:02Z</time>
      </trkpt>
      <trkpt lat="43.81339" lon="3.59088">
        <ele>162.18766848788</ele>
        <time>2017-03-15T13:51:39Z</time>
      </trkpt>
      <trkpt lat="43.81342" lon="3.59103">
        <ele>159.69818088528</ele>
        <time>2017-03-15T13:51:54Z</time>
      </trkpt>
      <trkpt lat="43.81342" lon="3.59115">
        <ele>159.69818088528</ele>
        <time>2017-03-15T13:52:36Z</time>
      </trkpt>
      <trkpt lat="43.81345" lon="3.59125">
        <ele>157.2888260831</ele>
        <time>2017-03-15T13:55:39Z</time>
      </trkpt>
      <trkpt lat="43.81351" lon="3.59135">
        <ele>157.2888260831</ele>
        <time>2017-03-15T13:55:39Z</time>
      </trkpt>
      <trkpt lat="43.81384" lon="3.59173">
        <ele>155.33407275384</ele>
        <time>2017-03-15T13:56:19Z</time>
      </trkpt>
      <trkpt lat="43.81386" lon="3.59173">
        <ele>155.33407275384</ele>
        <time>2017-03-15T13:56:24Z</time>
      </trkpt>
      <trkpt lat="43.81398" lon="3.59188">
        <ele>153.67543079436</ele>
        <time>2017-03-15T13:57:15Z</time>
      </trkpt>
      <trkpt lat="43.81414" lon="3.59209">
        <ele>152.58337187537</ele>
        <time>2017-03-15T13:57:47Z</time>
      </trkpt>
      <trkpt lat="43.81418" lon="3.59224">
        <ele>152.06216332588</ele>
        <time>2017-03-15T13:58:09Z</time>
      </trkpt>
      <trkpt lat="43.81424" lon="3.59231">
        <ele>152.06216332588</ele>
        <time>2017-03-15T13:58:09Z</time>
      </trkpt>
      <trkpt lat="43.81428" lon="3.59257">
        <ele>152.20088472901</ele>
        <time>2017-03-15T13:58:31Z</time>
      </trkpt>
      <trkpt lat="43.8143" lon="3.59258">
        <ele>152.20088472901</ele>
        <time>2017-03-15T13:58:34Z</time>
      </trkpt>
      <trkpt lat="43.81431" lon="3.59259">
        <ele>152.20088472901</ele>
        <time>2017-03-15T13:58:39Z</time>
      </trkpt>
      <trkpt lat="43.81436" lon="3.59269">
        <ele>153.26784632515</ele>
        <time>2017-03-15T13:58:59Z</time>
      </trkpt>
      <trkpt lat="43.81437" lon="3.59274">
        <ele>153.26784632515</ele>
        <time>2017-03-15T13:59:04Z</time>
      </trkpt>
      <trkpt lat="43.81438" lon="3.59279">
        <ele>153.26784632515</ele>
        <time>2017-03-15T13:59:09Z</time>
      </trkpt>
      <trkpt lat="43.81438" lon="3.59283">
        <ele>154.7167376932</ele>
        <time>2017-03-15T13:59:14Z</time>
      </trkpt>
      <trkpt lat="43.81438" lon="3.59287">
        <ele>154.7167376932</ele>
        <time>2017-03-15T13:59:19Z</time>
      </trkpt>
      <trkpt lat="43.81439" lon="3.59291">
        <ele>154.7167376932</ele>
        <time>2017-03-15T13:59:24Z</time>
      </trkpt>
      <trkpt lat="43.81441" lon="3.59298">
        <ele>156.41532803246</ele>
        <time>2017-03-15T13:59:29Z</time>
      </trkpt>
      <trkpt lat="43.81445" lon="3.59303">
        <ele>156.41532803246</ele>
        <time>2017-03-15T13:59:34Z</time>
      </trkpt>
      <trkpt lat="43.81447" lon="3.59308">
        <ele>158.26957915755</ele>
        <time>2017-03-15T13:59:39Z</time>
      </trkpt>
      <trkpt lat="43.81447" lon="3.59311">
        <ele>158.26957915755</ele>
        <time>2017-03-15T13:59:44Z</time>
      </trkpt>
      <trkpt lat="43.81448" lon="3.59316">
        <ele>158.26957915755</ele>
        <time>2017-03-15T13:59:49Z</time>
      </trkpt>
      <trkpt lat="43.81449" lon="3.59322">
        <ele>160.22113037204</ele>
        <time>2017-03-15T13:59:54Z</time>
      </trkpt>
      <trkpt lat="43.81452" lon="3.59326">
        <ele>160.22113037204</ele>
        <time>2017-03-15T13:59:59Z</time>
      </trkpt>
      <trkpt lat="43.81454" lon="3.59331">
        <ele>160.22113037204</ele>
        <time>2017-03-15T14:00:04Z</time>
      </trkpt>
      <trkpt lat="43.81457" lon="3.5933">
        <ele>162.47544467995</ele>
        <time>2017-03-15T14:00:09Z</time>
      </trkpt>
      <trkpt lat="43.81459" lon="3.59335">
        <ele>162.47544467995</ele>
        <time>2017-03-15T14:00:19Z</time>
      </trkpt>
      <trkpt lat="43.81456" lon="3.5934">
        <ele>162.47544467995</ele>
        <time>2017-03-15T14:00:24Z</time>
      </trkpt>
      <trkpt lat="43.81456" lon="3.59346">
        <ele>165.13600952214</ele>
        <time>2017-03-15T14:00:29Z</time>
      </trkpt>
      <trkpt lat="43.81455" lon="3.59352">
        <ele>165.13600952214</ele>
        <time>2017-03-15T14:00:34Z</time>
      </trkpt>
      <trkpt lat="43.81455" lon="3.59356">
        <ele>165.13600952214</ele>
        <time>2017-03-15T14:00:39Z</time>
      </trkpt>
      <trkpt lat="43.81455" lon="3.59362">
        <ele>167.95216036502</ele>
        <time>2017-03-15T14:00:44Z</time>
      </trkpt>
      <trkpt lat="43.81457" lon="3.59368">
        <ele>167.95216036502</ele>
        <time>2017-03-15T14:00:49Z</time>
      </trkpt>
      <trkpt lat="43.81456" lon="3.59374">
        <ele>170.92226620373</ele>
        <time>2017-03-15T14:00:54Z</time>
      </trkpt>
      <trkpt lat="43.81455" lon="3.5938">
        <ele>170.92226620373</ele>
        <time>2017-03-15T14:00:59Z</time>
      </trkpt>
      <trkpt lat="43.81452" lon="3.59382">
        <ele>170.92226620373</ele>
        <time>2017-03-15T14:01:04Z</time>
      </trkpt>
      <trkpt lat="43.81449" lon="3.5939">
        <ele>174.00164974151</ele>
        <time>2017-03-15T14:01:10Z</time>
      </trkpt>
      <trkpt lat="43.81438" lon="3.59404">
        <ele>177.30764982002</ele>
        <time>2017-03-15T14:01:29Z</time>
      </trkpt>
      <trkpt lat="43.81437" lon="3.59406">
        <ele>177.30764982002</ele>
        <time>2017-03-15T14:01:29Z</time>
      </trkpt>
      <trkpt lat="43.81439" lon="3.59467">
        <ele>182.15942215697</ele>
        <time>2017-03-15T14:02:33Z</time>
      </trkpt>
      <trkpt lat="43.81442" lon="3.59471">
        <ele>182.15942215697</ele>
        <time>2017-03-15T14:03:19Z</time>
      </trkpt>
      <trkpt lat="43.81446" lon="3.59476">
        <ele>186.95086101147</ele>
        <time>2017-03-15T14:03:24Z</time>
      </trkpt>
      <trkpt lat="43.8145" lon="3.59482">
        <ele>186.95086101147</ele>
        <time>2017-03-15T14:03:29Z</time>
      </trkpt>
      <trkpt lat="43.81449" lon="3.59484">
        <ele>186.95086101147</ele>
        <time>2017-03-15T14:03:39Z</time>
      </trkpt>
      <trkpt lat="43.81449" lon="3.59488">
        <ele>191.54923648172</ele>
        <time>2017-03-15T14:03:39Z</time>
      </trkpt>
      <trkpt lat="43.81449" lon="3.59489">
        <ele>191.54923648172</ele>
        <time>2017-03-15T14:04:00Z</time>
      </trkpt>
      <trkpt lat="43.81473" lon="3.59506">
        <ele>195.73182964603</ele>
        <time>2017-03-15T14:04:50Z</time>
      </trkpt>
      <trkpt lat="43.81497" lon="3.59557">
        <ele>199.68316213578</ele>
        <time>2017-03-15T14:05:32Z</time>
      </trkpt>
      <trkpt lat="43.8157" lon="3.59697">
        <ele>203.02785075401</ele>
        <time>2017-03-15T14:07:21Z</time>
      </trkpt>
      <trkpt lat="43.8157" lon="3.59699">
        <ele>203.02785075401</ele>
        <time>2017-03-15T14:07:21Z</time>
      </trkpt>
      <trkpt lat="43.81571" lon="3.59702">
        <ele>203.02785075401</ele>
        <time>2017-03-15T14:07:24Z</time>
      </trkpt>
      <trkpt lat="43.81573" lon="3.59711">
        <ele>206.12656295878</ele>
        <time>2017-03-15T14:07:37Z</time>
      </trkpt>
      <trkpt lat="43.81573" lon="3.59712">
        <ele>206.12656295878</ele>
        <time>2017-03-15T14:07:39Z</time>
      </trkpt>
      <trkpt lat="43.81573" lon="3.59714">
        <ele>206.12656295878</ele>
        <time>2017-03-15T14:07:54Z</time>
      </trkpt>
      <trkpt lat="43.81574" lon="3.59715">
        <ele>206.12656295878</ele>
        <time>2017-03-15T14:07:59Z</time>
      </trkpt>
      <trkpt lat="43.81573" lon="3.59721">
        <ele>206.12656295878</ele>
        <time>2017-03-15T14:08:14Z</time>
      </trkpt>
      <trkpt lat="43.81574" lon="3.59728">
        <ele>209.30037964129</ele>
        <time>2017-03-15T14:08:19Z</time>
      </trkpt>
      <trkpt lat="43.81579" lon="3.59731">
        <ele>209.30037964129</ele>
        <time>2017-03-15T14:08:24Z</time>
      </trkpt>
      <trkpt lat="43.81584" lon="3.59731">
        <ele>211.99695319749</ele>
        <time>2017-03-15T14:08:29Z</time>
      </trkpt>
      <trkpt lat="43.81588" lon="3.59732">
        <ele>211.99695319749</ele>
        <time>2017-03-15T14:08:34Z</time>
      </trkpt>
      <trkpt lat="43.81593" lon="3.59733">
        <ele>214.38378860297</ele>
        <time>2017-03-15T14:08:39Z</time>
      </trkpt>
      <trkpt lat="43.81599" lon="3.59738">
        <ele>214.38378860297</ele>
        <time>2017-03-15T14:08:44Z</time>
      </trkpt>
      <trkpt lat="43.81604" lon="3.5974">
        <ele>216.43021483095</ele>
        <time>2017-03-15T14:08:49Z</time>
      </trkpt>
      <trkpt lat="43.81608" lon="3.59745">
        <ele>216.43021483095</ele>
        <time>2017-03-15T14:08:54Z</time>
      </trkpt>
      <trkpt lat="43.81612" lon="3.5975">
        <ele>218.13818033525</ele>
        <time>2017-03-15T14:08:59Z</time>
      </trkpt>
      <trkpt lat="43.81642" lon="3.5976">
        <ele>219.30925433165</ele>
        <time>2017-03-15T14:09:32Z</time>
      </trkpt>
      <trkpt lat="43.81665" lon="3.59786">
        <ele>219.97780274812</ele>
        <time>2017-03-15T14:09:51Z</time>
      </trkpt>
      <trkpt lat="43.81666" lon="3.59789">
        <ele>219.97780274812</ele>
        <time>2017-03-15T14:09:54Z</time>
      </trkpt>
      <trkpt lat="43.8167" lon="3.59795">
        <ele>219.97780274812</ele>
        <time>2017-03-15T14:09:59Z</time>
      </trkpt>
      <trkpt lat="43.81674" lon="3.59802">
        <ele>220.42258689138</ele>
        <time>2017-03-15T14:10:04Z</time>
      </trkpt>
      <trkpt lat="43.81677" lon="3.59809">
        <ele>220.42258689138</ele>
        <time>2017-03-15T14:10:09Z</time>
      </trkpt>
      <trkpt lat="43.81679" lon="3.59814">
        <ele>220.55714347101</ele>
        <time>2017-03-15T14:10:14Z</time>
      </trkpt>
      <trkpt lat="43.81682" lon="3.5982">
        <ele>220.55714347101</ele>
        <time>2017-03-15T14:10:19Z</time>
      </trkpt>
      <trkpt lat="43.81685" lon="3.59825">
        <ele>220.28828039354</ele>
        <time>2017-03-15T14:10:24Z</time>
      </trkpt>
      <trkpt lat="43.81687" lon="3.59831">
        <ele>220.28828039354</ele>
        <time>2017-03-15T14:10:29Z</time>
      </trkpt>
      <trkpt lat="43.81691" lon="3.59835">
        <ele>219.70414353793</ele>
        <time>2017-03-15T14:10:34Z</time>
      </trkpt>
      <trkpt lat="43.81694" lon="3.59838">
        <ele>219.70414353793</ele>
        <time>2017-03-15T14:10:39Z</time>
      </trkpt>
      <trkpt lat="43.81699" lon="3.59843">
        <ele>218.88768031403</ele>
        <time>2017-03-15T14:10:44Z</time>
      </trkpt>
      <trkpt lat="43.81703" lon="3.59847">
        <ele>218.88768031403</ele>
        <time>2017-03-15T14:10:49Z</time>
      </trkpt>
      <trkpt lat="43.8171" lon="3.59853">
        <ele>217.83028622217</ele>
        <time>2017-03-15T14:10:54Z</time>
      </trkpt>
      <trkpt lat="43.81715" lon="3.59857">
        <ele>217.83028622217</ele>
        <time>2017-03-15T14:10:59Z</time>
      </trkpt>
      <trkpt lat="43.81721" lon="3.59863">
        <ele>216.65468464354</ele>
        <time>2017-03-15T14:11:04Z</time>
      </trkpt>
      <trkpt lat="43.81727" lon="3.59869">
        <ele>216.65468464354</ele>
        <time>2017-03-15T14:11:09Z</time>
      </trkpt>
      <trkpt lat="43.81732" lon="3.59872">
        <ele>215.47519905797</ele>
        <time>2017-03-15T14:11:14Z</time>
      </trkpt>
      <trkpt lat="43.81737" lon="3.59879">
        <ele>215.47519905797</ele>
        <time>2017-03-15T14:11:19Z</time>
      </trkpt>
      <trkpt lat="43.81742" lon="3.59882">
        <ele>214.26831395578</ele>
        <time>2017-03-15T14:11:24Z</time>
      </trkpt>
      <trkpt lat="43.81747" lon="3.59886">
        <ele>214.26831395578</ele>
        <time>2017-03-15T14:11:29Z</time>
      </trkpt>
      <trkpt lat="43.8175" lon="3.59891">
        <ele>212.99812115964</ele>
        <time>2017-03-15T14:11:34Z</time>
      </trkpt>
      <trkpt lat="43.81754" lon="3.59898">
        <ele>212.99812115964</ele>
        <time>2017-03-15T14:11:39Z</time>
      </trkpt>
      <trkpt lat="43.81757" lon="3.59904">
        <ele>211.66053164452</ele>
        <time>2017-03-15T14:11:44Z</time>
      </trkpt>
      <trkpt lat="43.81758" lon="3.59912">
        <ele>211.66053164452</ele>
        <time>2017-03-15T14:11:49Z</time>
      </trkpt>
      <trkpt lat="43.81762" lon="3.59935">
        <ele>209.93505115477</ele>
        <time>2017-03-15T14:12:04Z</time>
      </trkpt>
      <trkpt lat="43.81765" lon="3.59941">
        <ele>209.93505115477</ele>
        <time>2017-03-15T14:12:09Z</time>
      </trkpt>
      <trkpt lat="43.81765" lon="3.59944">
        <ele>209.93505115477</ele>
        <time>2017-03-15T14:12:14Z</time>
      </trkpt>
      <trkpt lat="43.81767" lon="3.59949">
        <ele>208.24649218882</ele>
        <time>2017-03-15T14:12:49Z</time>
      </trkpt>
      <trkpt lat="43.81769" lon="3.59953">
        <ele>208.24649218882</ele>
        <time>2017-03-15T14:12:54Z</time>
      </trkpt>
      <trkpt lat="43.81774" lon="3.59962">
        <ele>206.77228082248</ele>
        <time>2017-03-15T14:12:59Z</time>
      </trkpt>
      <trkpt lat="43.81777" lon="3.59967">
        <ele>206.77228082248</ele>
        <time>2017-03-15T14:13:04Z</time>
      </trkpt>
      <trkpt lat="43.81781" lon="3.59976">
        <ele>205.47451562935</ele>
        <time>2017-03-15T14:13:09Z</time>
      </trkpt>
      <trkpt lat="43.81784" lon="3.59985">
        <ele>205.47451562935</ele>
        <time>2017-03-15T14:13:14Z</time>
      </trkpt>
      <trkpt lat="43.81788" lon="3.59991">
        <ele>204.37526707436</ele>
        <time>2017-03-15T14:13:19Z</time>
      </trkpt>
      <trkpt lat="43.81792" lon="3.59999">
        <ele>204.37526707436</ele>
        <time>2017-03-15T14:13:24Z</time>
      </trkpt>
      <trkpt lat="43.81795" lon="3.60006">
        <ele>203.37915490364</ele>
        <time>2017-03-15T14:13:29Z</time>
      </trkpt>
      <trkpt lat="43.81798" lon="3.60013">
        <ele>203.37915490364</ele>
        <time>2017-03-15T14:13:34Z</time>
      </trkpt>
      <trkpt lat="43.81802" lon="3.60019">
        <ele>202.49839153129</ele>
        <time>2017-03-15T14:13:39Z</time>
      </trkpt>
      <trkpt lat="43.81805" lon="3.60023">
        <ele>202.49839153129</ele>
        <time>2017-03-15T14:13:44Z</time>
      </trkpt>
      <trkpt lat="43.81822" lon="3.6004">
        <ele>201.94570612186</ele>
        <time>2017-03-15T14:14:12Z</time>
      </trkpt>
      <trkpt lat="43.81882" lon="3.60054">
        <ele>202.19106158101</ele>
        <time>2017-03-15T14:15:01Z</time>
      </trkpt>
      <trkpt lat="43.81899" lon="3.60082">
        <ele>202.86059805895</ele>
        <time>2017-03-15T14:15:37Z</time>
      </trkpt>
      <trkpt lat="43.819" lon="3.60094">
        <ele>202.86059805895</ele>
        <time>2017-03-15T14:15:37Z</time>
      </trkpt>
      <trkpt lat="43.81902" lon="3.60111">
        <ele>203.54904219288</ele>
        <time>2017-03-15T14:15:54Z</time>
      </trkpt>
      <trkpt lat="43.81905" lon="3.60121">
        <ele>203.54904219288</ele>
        <time>2017-03-15T14:15:54Z</time>
      </trkpt>
      <trkpt lat="43.81922" lon="3.60196">
        <ele>204.47165135292</ele>
        <time>2017-03-15T14:16:44Z</time>
      </trkpt>
      <trkpt lat="43.81954" lon="3.60359">
        <ele>205.25072718139</ele>
        <time>2017-03-15T14:18:34Z</time>
      </trkpt>
      <trkpt lat="43.81958" lon="3.60381">
        <ele>205.76725797581</ele>
        <time>2017-03-15T14:18:50Z</time>
      </trkpt>
      <trkpt lat="43.8196" lon="3.60387">
        <ele>205.76725797581</ele>
        <time>2017-03-15T14:18:54Z</time>
      </trkpt>
      <trkpt lat="43.81963" lon="3.60393">
        <ele>205.89726184577</ele>
        <time>2017-03-15T14:18:59Z</time>
      </trkpt>
      <trkpt lat="43.81967" lon="3.60397">
        <ele>205.89726184577</ele>
        <time>2017-03-15T14:19:04Z</time>
      </trkpt>
      <trkpt lat="43.81972" lon="3.604">
        <ele>205.57014353792</ele>
        <time>2017-03-15T14:19:09Z</time>
      </trkpt>
      <trkpt lat="43.81976" lon="3.60403">
        <ele>205.57014353792</ele>
        <time>2017-03-15T14:19:14Z</time>
      </trkpt>
      <trkpt lat="43.8198" lon="3.60406">
        <ele>204.83702308073</ele>
        <time>2017-03-15T14:19:19Z</time>
      </trkpt>
      <trkpt lat="43.81985" lon="3.60409">
        <ele>204.83702308073</ele>
        <time>2017-03-15T14:19:24Z</time>
      </trkpt>
      <trkpt lat="43.8199" lon="3.60412">
        <ele>203.76076736433</ele>
        <time>2017-03-15T14:19:29Z</time>
      </trkpt>
      <trkpt lat="43.81994" lon="3.60415">
        <ele>203.76076736433</ele>
        <time>2017-03-15T14:19:34Z</time>
      </trkpt>
      <trkpt lat="43.81999" lon="3.60418">
        <ele>202.63110933144</ele>
        <time>2017-03-15T14:19:39Z</time>
      </trkpt>
      <trkpt lat="43.82004" lon="3.60421">
        <ele>202.63110933144</ele>
        <time>2017-03-15T14:19:44Z</time>
      </trkpt>
      <trkpt lat="43.82009" lon="3.60424">
        <ele>201.47159315552</ele>
        <time>2017-03-15T14:19:49Z</time>
      </trkpt>
      <trkpt lat="43.82014" lon="3.60426">
        <ele>201.47159315552</ele>
        <time>2017-03-15T14:19:54Z</time>
      </trkpt>
      <trkpt lat="43.82018" lon="3.60429">
        <ele>200.23198534126</ele>
        <time>2017-03-15T14:19:59Z</time>
      </trkpt>
      <trkpt lat="43.8202" lon="3.6043">
        <ele>200.23198534126</ele>
        <time>2017-03-15T14:20:04Z</time>
      </trkpt>
      <trkpt lat="43.82024" lon="3.60432">
        <ele>200.23198534126</ele>
        <time>2017-03-15T14:20:09Z</time>
      </trkpt>
      <trkpt lat="43.82027" lon="3.60434">
        <ele>198.92352519367</ele>
        <time>2017-03-15T14:20:14Z</time>
      </trkpt>
      <trkpt lat="43.8203" lon="3.60437">
        <ele>198.92352519367</ele>
        <time>2017-03-15T14:20:19Z</time>
      </trkpt>
      <trkpt lat="43.82033" lon="3.60443">
        <ele>197.5567234476</ele>
        <time>2017-03-15T14:20:24Z</time>
      </trkpt>
      <trkpt lat="43.82035" lon="3.6045">
        <ele>197.5567234476</ele>
        <time>2017-03-15T14:20:29Z</time>
      </trkpt>
      <trkpt lat="43.82036" lon="3.60457">
        <ele>196.28548862054</ele>
        <time>2017-03-15T14:20:34Z</time>
      </trkpt>
      <trkpt lat="43.82035" lon="3.60464">
        <ele>196.28548862054</ele>
        <time>2017-03-15T14:20:39Z</time>
      </trkpt>
      <trkpt lat="43.82033" lon="3.60471">
        <ele>195.12234221473</ele>
        <time>2017-03-15T14:20:44Z</time>
      </trkpt>
      <trkpt lat="43.8203" lon="3.60476">
        <ele>195.12234221473</ele>
        <time>2017-03-15T14:20:49Z</time>
      </trkpt>
      <trkpt lat="43.82027" lon="3.60477">
        <ele>195.12234221473</ele>
        <time>2017-03-15T14:20:54Z</time>
      </trkpt>
      <trkpt lat="43.82023" lon="3.60478">
        <ele>193.91994066627</ele>
        <time>2017-03-15T14:20:59Z</time>
      </trkpt>
      <trkpt lat="43.82018" lon="3.60479">
        <ele>193.91994066627</ele>
        <time>2017-03-15T14:21:04Z</time>
      </trkpt>
      <trkpt lat="43.82014" lon="3.60479">
        <ele>192.74350451375</ele>
        <time>2017-03-15T14:21:09Z</time>
      </trkpt>
      <trkpt lat="43.8201" lon="3.60481">
        <ele>192.74350451375</ele>
        <time>2017-03-15T14:21:14Z</time>
      </trkpt>
      <trkpt lat="43.82006" lon="3.60482">
        <ele>192.74350451375</ele>
        <time>2017-03-15T14:21:19Z</time>
      </trkpt>
      <trkpt lat="43.82003" lon="3.60487">
        <ele>191.59561598001</ele>
        <time>2017-03-15T14:21:24Z</time>
      </trkpt>
      <trkpt lat="43.82001" lon="3.60489">
        <ele>191.59561598001</ele>
        <time>2017-03-15T14:21:29Z</time>
      </trkpt>
      <trkpt lat="43.81993" lon="3.60497">
        <ele>190.43522057365</ele>
        <time>2017-03-15T14:21:37Z</time>
      </trkpt>
      <trkpt lat="43.81974" lon="3.60517">
        <ele>189.26741155091</ele>
        <time>2017-03-15T14:21:59Z</time>
      </trkpt>
      <trkpt lat="43.81972" lon="3.6052">
        <ele>189.26741155091</ele>
        <time>2017-03-15T14:22:04Z</time>
      </trkpt>
      <trkpt lat="43.8197" lon="3.60529">
        <ele>188.16884575302</ele>
        <time>2017-03-15T14:22:10Z</time>
      </trkpt>
      <trkpt lat="43.81969" lon="3.60531">
        <ele>188.16884575302</ele>
        <time>2017-03-15T14:22:14Z</time>
      </trkpt>
      <trkpt lat="43.81967" lon="3.60534">
        <ele>188.16884575302</ele>
        <time>2017-03-15T14:22:19Z</time>
      </trkpt>
      <trkpt lat="43.81963" lon="3.60549">
        <ele>187.13815904507</ele>
        <time>2017-03-15T14:22:35Z</time>
      </trkpt>
      <trkpt lat="43.8196" lon="3.60555">
        <ele>187.13815904507</ele>
        <time>2017-03-15T14:22:35Z</time>
      </trkpt>
      <trkpt lat="43.8194" lon="3.60604">
        <ele>185.72701121968</ele>
        <time>2017-03-15T14:23:15Z</time>
      </trkpt>
      <trkpt lat="43.81937" lon="3.6061">
        <ele>185.72701121968</ele>
        <time>2017-03-15T14:23:15Z</time>
      </trkpt>
      <trkpt lat="43.81923" lon="3.60654">
        <ele>183.99648824917</ele>
        <time>2017-03-15T14:23:49Z</time>
      </trkpt>
      <trkpt lat="43.8192" lon="3.60661">
        <ele>183.99648824917</ele>
        <time>2017-03-15T14:23:54Z</time>
      </trkpt>
      <trkpt lat="43.81963" lon="3.61043">
        <ele>179.84226824063</ele>
        <time>2017-03-15T14:27:55Z</time>
      </trkpt>
      <trkpt lat="43.81965" lon="3.61048">
        <ele>179.84226824063</ele>
        <time>2017-03-15T14:27:59Z</time>
      </trkpt>
      <trkpt lat="43.81991" lon="3.61124">
        <ele>175.48606428884</ele>
        <time>2017-03-15T14:29:01Z</time>
      </trkpt>
      <trkpt lat="43.8199" lon="3.6116">
        <ele>171.45919808243</ele>
        <time>2017-03-15T14:29:22Z</time>
      </trkpt>
      <trkpt lat="43.8199" lon="3.61168">
        <ele>171.45919808243</ele>
        <time>2017-03-15T14:29:27Z</time>
      </trkpt>
      <trkpt lat="43.81988" lon="3.61265">
        <ele>167.63316689183</ele>
        <time>2017-03-15T14:30:34Z</time>
      </trkpt>
      <trkpt lat="43.81986" lon="3.61278">
        <ele>164.16194542031</ele>
        <time>2017-03-15T14:30:36Z</time>
      </trkpt>
      <trkpt lat="43.81989" lon="3.61296">
        <ele>161.04286657312</ele>
        <time>2017-03-15T14:30:47Z</time>
      </trkpt>
      <trkpt lat="43.81998" lon="3.61326">
        <ele>158.18577021661</ele>
        <time>2017-03-15T14:31:22Z</time>
      </trkpt>
      <trkpt lat="43.82007" lon="3.6135">
        <ele>155.54937724898</ele>
        <time>2017-03-15T14:31:22Z</time>
      </trkpt>
      <trkpt lat="43.82013" lon="3.61375">
        <ele>153.20986784722</ele>
        <time>2017-03-15T14:31:47Z</time>
      </trkpt>
      <trkpt lat="43.8202" lon="3.61411">
        <ele>151.12146224344</ele>
        <time>2017-03-15T14:32:01Z</time>
      </trkpt>
      <trkpt lat="43.82021" lon="3.61417">
        <ele>151.12146224344</ele>
        <time>2017-03-15T14:32:04Z</time>
      </trkpt>
      <trkpt lat="43.82027" lon="3.61443">
        <ele>149.16874509434</ele>
        <time>2017-03-15T14:32:29Z</time>
      </trkpt>
      <trkpt lat="43.82036" lon="3.61467">
        <ele>147.44592179384</ele>
        <time>2017-03-15T14:32:46Z</time>
      </trkpt>
      <trkpt lat="43.82101" lon="3.61475">
        <ele>146.29880872713</ele>
        <time>2017-03-15T14:33:39Z</time>
      </trkpt>
      <trkpt lat="43.82147" lon="3.61489">
        <ele>145.39749058686</ele>
        <time>2017-03-15T14:34:24Z</time>
      </trkpt>
      <trkpt lat="43.82149" lon="3.61492">
        <ele>145.39749058686</ele>
        <time>2017-03-15T14:34:24Z</time>
      </trkpt>
      <trkpt lat="43.82166" lon="3.61524">
        <ele>144.63715380507</ele>
        <time>2017-03-15T14:34:56Z</time>
      </trkpt>
      <trkpt lat="43.82195" lon="3.61587">
        <ele>144.1939158198</ele>
        <time>2017-03-15T14:35:39Z</time>
      </trkpt>
      <trkpt lat="43.82211" lon="3.61609">
        <ele>143.78315506667</ele>
        <time>2017-03-15T14:35:59Z</time>
      </trkpt>
      <trkpt lat="43.82215" lon="3.61616">
        <ele>143.78315506667</ele>
        <time>2017-03-15T14:36:04Z</time>
      </trkpt>
      <trkpt lat="43.82219" lon="3.61624">
        <ele>143.35708382163</ele>
        <time>2017-03-15T14:36:09Z</time>
      </trkpt>
      <trkpt lat="43.82223" lon="3.6163">
        <ele>143.35708382163</ele>
        <time>2017-03-15T14:36:14Z</time>
      </trkpt>
      <trkpt lat="43.82226" lon="3.61637">
        <ele>142.91456856547</ele>
        <time>2017-03-15T14:36:19Z</time>
      </trkpt>
      <trkpt lat="43.8223" lon="3.61643">
        <ele>142.91456856547</ele>
        <time>2017-03-15T14:36:24Z</time>
      </trkpt>
      <trkpt lat="43.82233" lon="3.61649">
        <ele>142.46890063239</ele>
        <time>2017-03-15T14:36:29Z</time>
      </trkpt>
      <trkpt lat="43.82236" lon="3.61655">
        <ele>142.46890063239</ele>
        <time>2017-03-15T14:36:34Z</time>
      </trkpt>
      <trkpt lat="43.82241" lon="3.61662">
        <ele>141.7873147028</ele>
        <time>2017-03-15T14:36:39Z</time>
      </trkpt>
      <trkpt lat="43.8225" lon="3.61683">
        <ele>140.71236398438</ele>
        <time>2017-03-15T14:36:54Z</time>
      </trkpt>
      <trkpt lat="43.82287" lon="3.61745">
        <ele>139.07037311992</ele>
        <time>2017-03-15T14:37:45Z</time>
      </trkpt>
      <trkpt lat="43.82322" lon="3.61788">
        <ele>137.6674931442</ele>
        <time>2017-03-15T14:38:37Z</time>
      </trkpt>
      <trkpt lat="43.82335" lon="3.61791">
        <ele>136.63024648291</ele>
        <time>2017-03-15T14:38:37Z</time>
      </trkpt>
      <trkpt lat="43.82364" lon="3.61778">
        <ele>136.00272605871</ele>
        <time>2017-03-15T14:39:18Z</time>
      </trkpt>
      <trkpt lat="43.82376" lon="3.61773">
        <ele>135.59401208236</ele>
        <time>2017-03-15T14:39:18Z</time>
      </trkpt>
      <trkpt lat="43.82424" lon="3.61762">
        <ele>135.86064900832</ele>
        <time>2017-03-15T14:39:57Z</time>
      </trkpt>
      <trkpt lat="43.82427" lon="3.61761">
        <ele>135.86064900832</ele>
        <time>2017-03-15T14:39:59Z</time>
      </trkpt>
      <trkpt lat="43.82432" lon="3.61759">
        <ele>135.86064900832</ele>
        <time>2017-03-15T14:40:04Z</time>
      </trkpt>
      <trkpt lat="43.82456" lon="3.61751">
        <ele>136.61845972636</ele>
        <time>2017-03-15T14:40:28Z</time>
      </trkpt>
      <trkpt lat="43.82535" lon="3.61748">
        <ele>137.94040152832</ele>
        <time>2017-03-15T14:41:35Z</time>
      </trkpt>
      <trkpt lat="43.82619" lon="3.61769">
        <ele>139.80603632578</ele>
        <time>2017-03-15T14:42:56Z</time>
      </trkpt>
      <trkpt lat="43.82625" lon="3.61775">
        <ele>139.80603632578</ele>
        <time>2017-03-15T14:43:02Z</time>
      </trkpt>
      <trkpt lat="43.82631" lon="3.61781">
        <ele>141.56084789728</ele>
        <time>2017-03-15T14:43:17Z</time>
      </trkpt>
      <trkpt lat="43.82656" lon="3.618">
        <ele>143.18962428876</ele>
        <time>2017-03-15T14:43:43Z</time>
      </trkpt>
      <trkpt lat="43.82665" lon="3.61802">
        <ele>143.18962428876</ele>
        <time>2017-03-15T14:43:43Z</time>
      </trkpt>
      <trkpt lat="43.82685" lon="3.61803">
        <ele>144.77958147972</ele>
        <time>2017-03-15T14:44:03Z</time>
      </trkpt>
      <trkpt lat="43.82688" lon="3.61802">
        <ele>144.77958147972</ele>
        <time>2017-03-15T14:44:04Z</time>
      </trkpt>
      <trkpt lat="43.82692" lon="3.61803">
        <ele>144.77958147972</ele>
        <time>2017-03-15T14:44:09Z</time>
      </trkpt>
      <trkpt lat="43.82706" lon="3.61797">
        <ele>146.35409228377</ele>
        <time>2017-03-15T14:44:33Z</time>
      </trkpt>
      <trkpt lat="43.82741" lon="3.61775">
        <ele>148.09349550604</ele>
        <time>2017-03-15T14:45:04Z</time>
      </trkpt>
      <trkpt lat="43.82745" lon="3.61771">
        <ele>148.09349550604</ele>
        <time>2017-03-15T14:45:04Z</time>
      </trkpt>
      <trkpt lat="43.82755" lon="3.61765">
        <ele>149.94838687796</ele>
        <time>2017-03-15T14:45:42Z</time>
      </trkpt>
      <trkpt lat="43.82772" lon="3.61754">
        <ele>151.75752742708</ele>
        <time>2017-03-15T14:45:42Z</time>
      </trkpt>
      <trkpt lat="43.82776" lon="3.61749">
        <ele>151.75752742708</ele>
        <time>2017-03-15T14:45:54Z</time>
      </trkpt>
      <trkpt lat="43.82776" lon="3.61743">
        <ele>153.70327001023</ele>
        <time>2017-03-15T14:45:59Z</time>
      </trkpt>
      <trkpt lat="43.82776" lon="3.61738">
        <ele>153.70327001023</ele>
        <time>2017-03-15T14:46:04Z</time>
      </trkpt>
      <trkpt lat="43.82777" lon="3.61729">
        <ele>155.27704213641</ele>
        <time>2017-03-15T14:46:09Z</time>
      </trkpt>
      <trkpt lat="43.82781" lon="3.61719">
        <ele>156.75823897083</ele>
        <time>2017-03-15T14:46:32Z</time>
      </trkpt>
      <trkpt lat="43.82784" lon="3.61694">
        <ele>158.26207543819</ele>
        <time>2017-03-15T14:46:57Z</time>
      </trkpt>
      <trkpt lat="43.82791" lon="3.61688">
        <ele>158.26207543819</ele>
        <time>2017-03-15T14:46:57Z</time>
      </trkpt>
      <trkpt lat="43.82837" lon="3.61637">
        <ele>159.46310752189</ele>
        <time>2017-03-15T14:48:10Z</time>
      </trkpt>
      <trkpt lat="43.82833" lon="3.61628">
        <ele>159.46310752189</ele>
        <time>2017-03-15T14:48:19Z</time>
      </trkpt>
      <trkpt lat="43.82831" lon="3.61624">
        <ele>160.53642002733</ele>
        <time>2017-03-15T14:48:24Z</time>
      </trkpt>
      <trkpt lat="43.82829" lon="3.6162">
        <ele>160.53642002733</ele>
        <time>2017-03-15T14:48:29Z</time>
      </trkpt>
    </trkseg>
  </trk>
</gpx>